Data for 01/02/2007

Time Sea-Level Adjusted Pressure Absolute Pressure Temperature Relative Humidity Dew Point Precipitation   
(mb) (inHg) (mb) (inHg) (C) (F) (%) (C) (F) (mm) (in)
00:01 1023 30.21 853 25.19 -3.8 25.1 82 -6.5 20.2 0
00:02 1023 30.21 853 25.19 -4 24.9 82 -6.6 20.1 0
00:03 1023 30.21 853 25.19 -4.1 24.7 82 -6.6 20 0
00:04 1023 30.21 852 25.16 -4.1 24.6 83 -6.6 20.1 0
00:05 1023 30.21 852 25.16 -4.2 24.5 83 -6.6 20.2 0
00:06 1023 30.21 852 25.16 -4.2 24.4 84 -6.6 20.1 0
00:07 1023 30.21 852 25.16 -4.3 24.3 84 -6.6 20 0
00:08 1023 30.21 852 25.16 -4.3 24.2 84 -6.6 20.1 0
00:09 1023 30.21 852 25.16 -4.3 24.2 84 -6.6 20.1 0
00:10 1023 30.21 852 25.16 -4.3 24.2 84 -6.6 20.1 0
00:11 1023 30.21 852 25.16 -4.3 24.3 84 -6.6 20.2 0
00:12 1023 30.21 852 25.16 -4.2 24.4 84 -6.6 20.1 0
00:13 1023 30.21 852 25.16 -4.2 24.5 83 -6.6 20.2 0
00:14 1023 30.21 852 25.16 -4.2 24.4 84 -6.6 20.1 0
00:15 1023 30.21 852 25.16 -4.2 24.4 84 -6.5 20.2 0
00:16 1023 30.21 852 25.16 -4.2 24.4 84 -6.5 20.3 0
00:17 1023 30.21 852 25.16 -4.2 24.5 84 -6.5 20.3 0
00:18 1023 30.21 852 25.16 -4.1 24.6 84 -6.5 20.3 0
00:19 1023 30.21 852 25.16 -4 24.7 83 -6.5 20.3 0
00:20 1023 30.21 852 25.16 -4.1 24.7 83 -6.5 20.3 0
00:21 1023 30.21 852 25.16 -4.1 24.7 83 -6.5 20.3 0
00:22 1023 30.21 852 25.16 -4 24.8 83 -6.5 20.3 0
00:23 1023 30.21 852 25.16 -4 24.8 82 -6.6 20.2 0
00:24 1023 30.21 852 25.16 -3.9 24.9 82 -6.6 20.1 0
00:25 1023 30.21 852 25.16 -3.8 25.1 81 -6.6 20.1 0
00:26 1023 30.21 852 25.16 -3.7 25.3 80 -6.6 20.1 0
00:27 1023 30.21 852 25.16 -3.8 25.2 81 -6.6 20 0
00:28 1023 30.21 852 25.16 -3.8 25.2 80 -6.7 19.9 0
00:29 1023 30.21 852 25.16 -3.7 25.4 79 -6.7 19.9 0
00:30 1023 30.21 852 25.16 -3.5 25.8 78 -6.7 19.9 0
00:31 1023 30.21 852 25.16 -3.3 26.1 77 -6.8 19.8 0
00:32 1023 30.21 852 25.16 -3.3 26.1 76 -6.9 19.6 0
00:33 1023 30.21 852 25.16 -3.4 26 76 -6.9 19.5 0
00:34 1023 30.21 852 25.16 -3.4 25.8 77 -6.8 19.7 0
00:35 1023 30.21 852 25.16 -3.4 25.9 76 -7 19.5 0
00:36 1023 30.21 852 25.16 -3.3 26 76 -6.9 19.5 0
00:37 1023 30.21 852 25.16 -3.3 26.1 75 -7 19.3 0
00:38 1023 30.21 852 25.16 -3.4 25.8 76 -7.1 19.2 0
00:39 1023 30.21 852 25.16 -3.6 25.5 77 -7.1 19.1 0
00:40 1023 30.21 852 25.16 -3.7 25.3 78 -7 19.5 0
00:41 1023 30.21 852 25.16 -3.8 25.3 79 -7 19.5 0
00:42 1023 30.21 852 25.16 -3.8 25.2 79 -6.9 19.6 0
00:43 1023 30.21 852 25.16 -3.6 25.5 79 -6.8 19.8 0
00:44 1023 30.21 852 25.16 -3.4 25.8 78 -6.8 19.8 0
00:45 1023 30.21 852 25.16 -3.4 26 78 -6.7 19.9 0
00:46 1023 30.21 852 25.16 -3.3 26.1 78 -6.6 20.1 0
00:47 1023 30.21 852 25.16 -3.3 26 78 -6.6 20.1 0
00:48 1023 30.21 852 25.16 -3.3 26.1 78 -6.6 20.2 0
00:49 1023 30.21 852 25.16 -3.4 26 78 -6.6 20.1 0
00:50 1023 30.21 852 25.16 -3.4 25.9 79 -6.6 20.2 0
00:51 1023 30.21 852 25.16 -3.4 26 79 -6.6 20.2 0
00:52 1022 30.18 852 25.16 -3.3 26 78 -6.6 20.2 0
00:53 1023 30.21 852 25.16 -3.3 26 79 -6.5 20.3 0
00:54 1023 30.21 852 25.16 -3.2 26.2 78 -6.6 20.2 0
00:55 1023 30.21 852 25.16 -3.1 26.4 78 -6.5 20.3 0
00:56 1023 30.21 852 25.16 -3.1 26.3 78 -6.5 20.3 0
00:57 1023 30.21 852 25.16 -3.3 26.1 78 -6.5 20.3 0
00:58 1023 30.21 852 25.16 -3.3 26.1 79 -6.5 20.3 0
00:59 1023 30.21 852 25.16 -3.2 26.2 78 -6.5 20.3 0
01:00 1023 30.21 852 25.16 -3.1 26.3 78 -6.5 20.2 0
01:01 1023 30.21 852 25.16 -3.1 26.4 77 -6.5 20.2 0
01:02 1023 30.21 852 25.16 -3.1 26.4 77 -6.6 20.2 0
01:03 1023 30.21 852 25.16 -3.2 26.2 78 -6.6 20.2 0
01:04 1022 30.18 852 25.16 -3.3 26 78 -6.6 20.2 0
01:05 1022 30.18 852 25.16 -3.4 25.8 79 -6.6 20 0
01:06 1022 30.18 852 25.16 -3.5 25.7 79 -6.7 20 0
01:07 1023 30.21 852 25.16 -3.4 25.9 78 -6.7 19.9 0
01:08 1023 30.21 852 25.16 -3.2 26.2 77 -6.7 20 0
01:09 1023 30.21 852 25.16 -3.2 26.2 77 -6.6 20 0
01:10 1023 30.21 852 25.16 -3.4 25.9 78 -6.7 20 0
01:11 1023 30.21 852 25.16 -3.5 25.6 79 -6.7 20 0
01:12 1023 30.21 852 25.16 -3.7 25.3 80 -6.7 19.9 0
01:13 1023 30.21 852 25.16 -3.8 25.1 80 -6.8 19.8 0
01:14 1023 30.21 852 25.16 -4 24.8 81 -6.8 19.7 0
01:15 1023 30.21 852 25.16 -4.1 24.6 82 -6.8 19.8 0
01:16 1023 30.21 852 25.16 -4.1 24.5 82 -6.7 19.9 0
01:17 1023 30.21 852 25.16 -4.1 24.6 83 -6.7 20 0
01:18 1023 30.21 852 25.16 -4 24.7 83 -6.5 20.2 0
01:19 1023 30.21 852 25.16 -4 24.8 82 -6.6 20.1 0
01:20 1023 30.21 852 25.16 -4 24.8 82 -6.5 20.2 0
01:21 1023 30.21 852 25.16 -3.9 24.9 83 -6.5 20.3 0
01:22 1023 30.21 852 25.16 -3.8 25.2 82 -6.4 20.5 0
01:23 1023 30.21 852 25.16 -3.4 26 80 -6.3 20.7 0
01:24 1023 30.21 852 25.16 -3.1 26.4 80 -6.1 21.1 0
01:25 1023 30.21 852 25.16 -3 26.7 79 -6.1 21.1 0
01:26 1023 30.21 852 25.16 -2.9 26.7 80 -5.9 21.3 0
01:27 1023 30.21 852 25.16 -3 26.7 81 -5.8 21.6 0
01:28 1023 30.21 852 25.16 -3 26.7 80 -5.9 21.4 0
01:29 1023 30.21 852 25.16 -2.8 26.9 80 -5.8 21.6 0
01:30 1023 30.21 852 25.16 -2.7 27.1 80 -5.7 21.7 0
01:31 1022 30.18 852 25.16 -2.7 27.1 80 -5.7 21.8 0
01:32 1022 30.18 852 25.16 -2.7 27.1 79 -5.8 21.6 0
01:33 1023 30.21 852 25.16 -2.6 27.2 79 -5.8 21.6 0
01:34 1023 30.21 852 25.16 -2.5 27.4 79 -5.8 21.6 0
01:35 1023 30.21 852 25.16 -2.4 27.7 78 -5.7 21.8 0
01:36 1023 30.21 852 25.16 -2.4 27.7 78 -5.7 21.8 0
01:37 1023 30.21 852 25.16 -2.3 27.9 78 -5.6 21.9 0
01:38 1022 30.18 852 25.16 -2.3 27.9 78 -5.6 21.9 0
01:39 1022 30.18 852 25.16 -2.2 28 78 -5.6 22 0
01:40 1023 30.21 852 25.16 -2.2 28 78 -5.6 22 0
01:41 1023 30.21 852 25.16 -2.2 28 78 -5.5 22.1 0
01:42 1023 30.21 852 25.16 -2.1 28.2 78 -5.5 22.1 0
01:43 1023 30.21 852 25.16 -2 28.5 77 -5.5 22.1 0
01:44 1023 30.21 852 25.16 -1.9 28.7 77 -5.3 22.4 0
01:45 1023 30.21 852 25.16 -1.8 28.8 77 -5.3 22.5 0
01:46 1023 30.21 852 25.16 -1.4 29.4 76 -5.1 22.8 0
01:47 1023 30.21 852 25.16 -1.2 29.8 75 -5.1 22.7 0
01:48 1023 30.21 852 25.16 -1 30.1 75 -5 23 0
01:49 1023 30.21 852 25.16 -1 30.2 76 -4.8 23.4 0
01:50 1023 30.21 852 25.16 -1.1 30.1 76 -4.7 23.5 0
01:51 1023 30.21 852 25.16 -1 30.2 75 -4.8 23.4 0
01:52 1023 30.21 852 25.16 -0.9 30.4 76 -4.6 23.7 0
01:53 1023 30.21 852 25.16 -0.8 30.5 76 -4.5 23.9 0
01:54 1023 30.21 852 25.16 -0.8 30.5 77 -4.4 24.1 0
01:55 1023 30.21 852 25.16 -0.8 30.5 77 -4.4 24.1 0
01:56 1023 30.21 852 25.16 -0.8 30.6 76 -4.5 24 0
01:57 1023 30.21 852 25.16 -0.7 30.8 76 -4.3 24.2 0
01:58 1023 30.21 852 25.16 -0.6 30.9 76 -4.4 24.2 0
01:59 1023 30.21 852 25.16 -0.5 31.1 76 -4.2 24.4 0
02:00 1023 30.21 852 25.16 -0.5 31.1 75 -4.3 24.2 0
02:01 1023 30.21 852 25.16 -0.4 31.3 76 -4.2 24.5 0
02:02 1023 30.21 852 25.16 -0.3 31.5 75 -4.2 24.4 0
02:03 1023 30.21 852 25.16 -0.2 31.6 75 -4.1 24.6 0
02:04 1023 30.21 852 25.16 -0.2 31.6 74 -4.3 24.2 0
02:05 1023 30.21 852 25.16 -0.1 31.9 73 -4.3 24.3 0
02:06 1023 30.21 852 25.16 0 32.1 73 -4.3 24.3 0
02:07 1023 30.21 852 25.16 0.1 32.2 73 -4.1 24.6 0
02:08 1023 30.21 852 25.16 0.1 32.2 73 -4.1 24.5 0
02:09 1023 30.21 852 25.16 0 32.1 73 -4.2 24.5 0
02:10 1023 30.21 852 25.16 0.1 32.1 73 -4.1 24.6 0
02:11 1023 30.21 852 25.16 0.3 32.5 73 -4 24.8 0
02:12 1023 30.21 852 25.16 0.3 32.5 73 -4 24.7 0
02:13 1023 30.21 852 25.16 0.2 32.4 73 -4.1 24.6 0
02:14 1023 30.21 852 25.16 0.1 32.2 73 -4.1 24.6 0
02:15 1023 30.21 852 25.16 -0 31.9 74 -4.2 24.5 0
02:16 1023 30.21 852 25.16 -0.1 31.8 74 -4.2 24.5 0
02:17 1023 30.21 852 25.16 -0.3 31.5 74 -4.3 24.3 0
02:18 1023 30.21 852 25.16 -0.4 31.3 75 -4.3 24.2 0
02:19 1023 30.21 852 25.16 -0.5 31.2 75 -4.4 24.1 0
02:20 1023 30.21 852 25.16 -0.5 31.1 75 -4.4 24 0
02:21 1023 30.21 852 25.16 -0.4 31.2 74 -4.6 23.8 0
02:22 1023 30.21 852 25.16 -0.4 31.4 74 -4.4 24 0
02:23 1023 30.21 852 25.16 -0.4 31.3 75 -4.4 24.1 0
02:24 1023 30.21 852 25.16 -0.6 31 76 -4.4 24.1 0
02:25 1023 30.21 852 25.16 -0.7 30.7 76 -4.4 24.1 0
02:26 1023 30.21 852 25.16 -0.8 30.6 77 -4.2 24.4 0
02:27 1022 30.18 852 25.16 -0.9 30.3 78 -4.3 24.3 0
02:28 1023 30.21 852 25.16 -1.2 29.9 79 -4.4 24.1 0
02:29 1022 30.18 852 25.16 -1.3 29.7 80 -4.4 24.1 0
02:30 1022 30.18 852 25.16 -1.4 29.5 81 -4.3 24.2 0
02:31 1022 30.18 852 25.16 -1.5 29.4 81 -4.2 24.4 0
02:32 1023 30.21 852 25.16 -1.5 29.3 83 -4.1 24.6 0
02:33 1023 30.21 852 25.16 -1.5 29.3 82 -4.3 24.3 0
02:34 1023 30.21 852 25.16 -1.6 29.2 79 -4.8 23.4 0
02:35 1023 30.21 852 25.16 -1.7 28.9 79 -4.8 23.3 0
02:36 1023 30.21 852 25.16 -1.9 28.5 80 -5 23.1 0
02:37 1023 30.21 852 25.16 -2.1 28.2 81 -5 23 0
02:38 1023 30.21 852 25.16 -2.3 27.9 82 -4.9 23.2 0
02:39 1023 30.21 852 25.16 -2.4 27.7 82 -5 23 0
02:40 1023 30.21 852 25.16 -2.4 27.7 82 -5 22.9 0
02:41 1023 30.21 852 25.16 -2.5 27.6 83 -5 23.1 0
02:42 1023 30.21 852 25.16 -2.5 27.5 82 -5.1 22.8 0
02:43 1023 30.21 852 25.16 -2.5 27.5 82 -5.2 22.6 0
02:44 1023 30.21 852 25.16 -2.5 27.5 81 -5.3 22.5 0
02:45 1023 30.21 852 25.16 -2.4 27.7 83 -4.9 23.1 0
02:46 1023 30.21 852 25.16 -2.3 27.8 83 -4.8 23.4 0
02:47 1023 30.21 852 25.16 -2.3 27.9 83 -4.8 23.3 0
02:48 1023 30.21 852 25.16 -2.2 28 81 -5 22.9 0
02:49 1023 30.21 852 25.16 -2.2 28 82 -4.9 23.1 0
02:50 1023 30.21 852 25.16 -2.2 28.1 81 -5 23.1 0
02:51 1023 30.21 852 25.16 -2.2 28.1 81 -5 23.1 0
02:52 1023 30.21 852 25.16 -2.2 28.1 81 -5 23 0
02:53 1023 30.21 852 25.16 -2.1 28.1 82 -4.8 23.3 0
02:54 1023 30.21 852 25.16 -2.1 28.1 81 -5 23 0
02:55 1023 30.21 852 25.16 -2.1 28.2 81 -5 23 0
02:56 1023 30.21 852 25.16 -2.1 28.2 80 -5.1 22.9 0
02:57 1022 30.18 852 25.16 -2.1 28.2 80 -5.1 22.8 0
02:58 1022 30.18 852 25.16 -2 28.4 80 -5 23.1 0
02:59 1022 30.18 852 25.16 -1.9 28.5 80 -5 23.1 0
03:00 1022 30.18 852 25.16 -1.9 28.6 80 -4.8 23.3 0
03:01 1022 30.18 852 25.16 -1.9 28.6 80 -4.9 23.2 0
03:02 1022 30.18 852 25.16 -1.8 28.8 79 -5 23 0
03:03 1022 30.18 852 25.16 -1.7 28.9 79 -4.9 23.2 0
03:04 1022 30.18 852 25.16 -1.6 29.1 78 -4.9 23.1 0
03:05 1022 30.18 852 25.16 -1.5 29.2 79 -4.8 23.4 0
03:06 1022 30.18 852 25.16 -1.5 29.3 78 -4.8 23.4 0
03:07 1023 30.21 852 25.16 -1.5 29.3 78 -4.8 23.4 0
03:08 1023 30.21 852 25.16 -1.5 29.3 78 -4.8 23.4 0
03:09 1023 30.21 852 25.16 -1.5 29.4 78 -4.8 23.3 0
03:10 1023 30.21 852 25.16 -1.4 29.5 78 -4.7 23.5 0
03:11 1023 30.21 852 25.16 -1.4 29.5 79 -4.5 23.9 0
03:12 1023 30.21 852 25.16 -1.4 29.5 79 -4.6 23.7 0
03:13 1023 30.21 852 25.16 -1.4 29.4 79 -4.7 23.6 0
03:14 1023 30.21 852 25.16 -1.4 29.4 79 -4.7 23.6 0
03:15 1023 30.21 852 25.16 -1.5 29.4 79 -4.7 23.5 0
03:16 1023 30.21 852 25.16 -1.4 29.4 79 -4.6 23.7 0
03:17 1023 30.21 852 25.16 -1.5 29.3 79 -4.7 23.6 0
03:18 1023 30.21 852 25.16 -1.5 29.2 79 -4.7 23.5 0
03:19 1023 30.21 852 25.16 -1.7 29 80 -4.7 23.5 0
03:20 1023 30.21 852 25.16 -1.7 28.9 79 -4.8 23.3 0
03:21 1023 30.21 852 25.16 -1.8 28.8 80 -4.7 23.5 0
03:22 1023 30.21 852 25.16 -1.9 28.5 81 -4.8 23.4 0
03:23 1023 30.21 852 25.16 -2.1 28.2 82 -4.8 23.3 0
03:24 1023 30.21 852 25.16 -2.3 27.8 82 -5 23.1 0
03:25 1022 30.18 852 25.16 -2.6 27.4 83 -5 22.9 0
03:26 1023 30.21 852 25.16 -2.7 27.1 84 -5.1 22.8 0
03:27 1022 30.18 852 25.16 -2.9 26.8 85 -5.2 22.7 0
03:28 1023 30.21 852 25.16 -3 26.6 85 -5.2 22.7 0
03:29 1023 30.21 852 25.16 -3.1 26.5 85 -5.2 22.7 0
03:30 1023 30.21 852 25.16 -3 26.5 84 -5.3 22.4 0
03:31 1023 30.21 852 25.16 -3.1 26.4 85 -5.3 22.4 0
03:32 1023 30.21 852 25.16 -3.1 26.3 85 -5.3 22.4 0
03:33 1023 30.21 852 25.16 -3.2 26.3 85 -5.3 22.5 0
03:34 1022 30.18 852 25.16 -3.1 26.3 85 -5.3 22.4 0
03:35 1022 30.18 852 25.16 -3.1 26.4 85 -5.3 22.4 0
03:36 1022 30.18 852 25.16 -3.2 26.2 86 -5.3 22.4 0
03:37 1022 30.18 852 25.16 -3.3 26 86 -5.4 22.2 0
03:38 1022 30.18 852 25.16 -3.5 25.7 87 -5.4 22.3 0
03:39 1022 30.18 852 25.16 -3.6 25.5 87 -5.5 22.1 0
03:40 1022 30.18 852 25.16 -3.8 25.2 87 -5.6 21.9 0
03:41 1022 30.18 852 25.16 -3.8 25.1 87 -5.7 21.8 0
03:42 1022 30.18 852 25.16 -3.9 25.1 87 -5.6 21.8 0
03:43 1022 30.18 852 25.16 -3.9 24.9 88 -5.7 21.7 0
03:44 1022 30.18 852 25.16 -4 24.8 88 -5.6 21.9 0
03:45 1022 30.18 852 25.16 -4 24.9 88 -5.6 21.9 0
03:46 1022 30.18 852 25.16 -3.9 24.9 89 -5.5 22 0
03:47 1022 30.18 851 25.13 -3.9 25 89 -5.5 22.1 0
03:48 1022 30.18 851 25.13 -3.8 25.2 88 -5.5 22.1 0
03:49 1022 30.18 851 25.13 -3.8 25.2 88 -5.5 22.2 0
03:50 1022 30.18 851 25.13 -3.7 25.4 87 -5.5 22.2 0
03:51 1022 30.18 851 25.13 -3.6 25.6 87 -5.4 22.2 0
03:52 1022 30.18 851 25.13 -3.4 25.9 86 -5.4 22.3 0
03:53 1022 30.18 851 25.13 -3.4 25.9 86 -5.4 22.3 0
03:54 1022 30.18 851 25.13 -3.4 25.9 86 -5.4 22.3 0
03:55 1022 30.18 851 25.13 -3.5 25.8 88 -5.2 22.6 0
03:56 1022 30.18 851 25.13 -3.5 25.7 88 -5.2 22.6 0
03:57 1022 30.18 851 25.13 -3.5 25.8 89 -5.1 22.9 0
03:58 1022 30.18 851 25.13 -3.4 25.9 89 -5 23 0
03:59 1022 30.18 851 25.13 -3.2 26.3 88 -4.9 23.2 0
04:00 1022 30.18 851 25.13 -3 26.5 87 -4.9 23.2 0
04:01 1022 30.18 851 25.13 -2.9 26.8 87 -4.8 23.3 0
04:02 1022 30.18 851 25.13 -2.8 26.9 87 -4.7 23.6 0
04:03 1022 30.18 851 25.13 -2.7 27.2 87 -4.6 23.8 0
04:04 1022 30.18 851 25.13 -2.6 27.4 86 -4.6 23.8 0
04:05 1022 30.18 851 25.13 -2.5 27.5 86 -4.6 23.8 0
04:06 1022 30.18 851 25.13 -2.4 27.6 85 -4.6 23.7 0
04:07 1022 30.18 851 25.13 -2.4 27.7 84 -4.7 23.5 0
04:08 1022 30.18 851 25.13 -2.4 27.7 84 -4.7 23.5 0
04:09 1022 30.18 851 25.13 -2.4 27.7 84 -4.7 23.5 0
04:10 1022 30.18 851 25.13 -2.4 27.6 85 -4.7 23.6 0
04:11 1022 30.18 851 25.13 -2.5 27.6 85 -4.6 23.6 0
04:12 1021 30.15 851 25.13 -2.6 27.4 86 -4.6 23.7 0
04:13 1021 30.15 851 25.13 -2.6 27.2 87 -4.6 23.7 0
04:14 1021 30.15 850 25.1 -2.7 27.1 87 -4.5 23.9 0
04:15 1021 30.15 850 25.1 -2.6 27.2 88 -4.4 24 0
04:16 1021 30.15 850 25.1 -2.5 27.6 88 -4.2 24.4 0
04:17 1021 30.15 850 25.1 -2.3 27.9 87 -4.1 24.6 0
04:18 1021 30.15 850 25.1 -2.2 28.1 86 -4.1 24.6 0
04:19 1021 30.15 850 25.1 -2.1 28.2 86 -4.1 24.5 0
04:20 1021 30.15 850 25.1 -2.1 28.3 86 -4.1 24.5 0
04:21 1021 30.15 850 25.1 -1.9 28.5 85 -4.1 24.6 0
04:22 1021 30.15 850 25.1 -1.8 28.8 84 -4.1 24.6 0
04:23 1021 30.15 850 25.1 -1.7 28.9 85 -4 24.8 0
04:24 1021 30.15 850 25.1 -1.7 29 85 -3.9 24.9 0
04:25 1021 30.15 851 25.13 -1.7 29 85 -3.9 25 0
04:26 1021 30.15 851 25.13 -1.6 29 83 -4.2 24.5 0
04:27 1021 30.15 851 25.13 -1.5 29.2 83 -4.1 24.6 0
04:28 1021 30.15 851 25.13 -1.5 29.3 82 -4.2 24.5 0
04:29 1021 30.15 851 25.13 -1.4 29.5 83 -4 24.8 0
04:30 1021 30.15 850 25.1 -1.4 29.5 83 -3.9 24.9 0
04:31 1021 30.15 850 25.1 -1.4 29.4 84 -3.8 25.1 0
04:32 1021 30.15 850 25.1 -1.5 29.3 83 -4.1 24.7 0
04:33 1021 30.15 850 25.1 -1.6 29.1 83 -4.1 24.6 0
04:34 1021 30.15 850 25.1 -1.7 29 83 -4.1 24.6 0
04:35 1021 30.15 850 25.1 -1.7 28.9 84 -4.1 24.7 0
04:36 1021 30.15 850 25.1 -1.8 28.7 85 -4 24.7 0
04:37 1021 30.15 850 25.1 -1.9 28.7 86 -3.9 24.9 0
04:38 1021 30.15 851 25.13 -1.9 28.5 85 -4.1 24.7 0
04:39 1021 30.15 851 25.13 -2 28.4 85 -4.1 24.6 0
04:40 1021 30.15 850 25.1 -2 28.3 86 -4.1 24.6 0
04:41 1021 30.15 850 25.1 -2.1 28.2 86 -4.1 24.6 0
04:42 1021 30.15 851 25.13 -2.1 28.2 86 -4.2 24.5 0
04:43 1021 30.15 851 25.13 -2.2 28 86 -4.3 24.3 0
04:44 1021 30.15 851 25.13 -2.2 28 86 -4.3 24.2 0
04:45 1021 30.15 851 25.13 -2.2 28 86 -4.3 24.3 0
04:46 1021 30.15 851 25.13 -2.3 27.9 86 -4.3 24.3 0
04:47 1021 30.15 851 25.13 -2.3 27.9 86 -4.3 24.3 0
04:48 1021 30.15 850 25.1 -2.3 27.9 87 -4.2 24.4 0
04:49 1021 30.15 850 25.1 -2.3 27.9 87 -4.2 24.5 0
04:50 1021 30.15 850 25.1 -2.3 27.9 87 -4.2 24.5 0
04:51 1021 30.15 850 25.1 -2.3 27.9 86 -4.2 24.4 0
04:52 1021 30.15 851 25.13 -2.3 27.9 86 -4.2 24.4 0
04:53 1021 30.15 851 25.13 -2.3 27.9 87 -4.1 24.6 0
04:54 1021 30.15 851 25.13 -2.3 27.8 88 -4.1 24.6 0
04:55 1021 30.15 851 25.13 -2.4 27.8 88 -4.1 24.7 0
04:56 1021 30.15 851 25.13 -2.4 27.6 88 -4.1 24.6 0
04:57 1021 30.15 850 25.1 -2.4 27.7 88 -4.1 24.6 0
04:58 1021 30.15 850 25.1 -2.4 27.6 88 -4.1 24.6 0
04:59 1021 30.15 850 25.1 -2.4 27.7 88 -4.1 24.7 0
05:00 1021 30.15 850 25.1 -2.4 27.7 89 -4 24.8 0
05:01 1021 30.15 850 25.1 -2.4 27.7 89 -3.9 24.9 0
05:02 1021 30.15 850 25.1 -2.4 27.8 88 -4 24.7 0
05:03 1021 30.15 850 25.1 -2.3 27.9 88 -4 24.7 0
05:04 1021 30.15 850 25.1 -2.2 28 88 -4 24.7 0
05:05 1021 30.15 850 25.1 -2.2 28 87 -4.1 24.7 0
05:06 1021 30.15 850 25.1 -2.2 28.1 87 -4 24.7 0
05:07 1021 30.15 850 25.1 -2.1 28.2 87 -4 24.7 0
05:08 1021 30.15 850 25.1 -2 28.3 86 -4 24.8 0
05:09 1021 30.15 850 25.1 -2 28.4 86 -4 24.8 0
05:10 1021 30.15 851 25.13 -1.9 28.5 86 -4 24.8 0
05:11 1021 30.15 851 25.13 -1.9 28.6 85 -4.1 24.6 0
05:12 1021 30.15 851 25.13 -1.8 28.7 85 -4 24.8 0
05:13 1021 30.15 851 25.13 -1.8 28.8 85 -3.9 24.9 0
05:14 1021 30.15 851 25.13 -1.7 28.9 85 -4 24.8 0
05:15 1021 30.15 851 25.13 -1.7 29 84 -4 24.9 0
05:16 1022 30.18 851 25.13 -1.6 29.1 85 -3.8 25.1 0
05:17 1022 30.18 851 25.13 -1.6 29.1 85 -3.8 25.1 0
05:18 1022 30.18 851 25.13 -1.6 29.2 85 -3.8 25.2 0
05:19 1022 30.18 851 25.13 -1.6 29.2 85 -3.8 25.2 0
05:20 1022 30.18 851 25.13 -1.6 29.2 85 -3.8 25.1 0
05:21 1022 30.18 851 25.13 -1.5 29.2 85 -3.8 25.1 0
05:22 1022 30.18 851 25.13 -1.5 29.3 84 -3.8 25.1 0
05:23 1022 30.18 851 25.13 -1.5 29.2 85 -3.8 25.2 0
05:24 1022 30.18 851 25.13 -1.6 29.1 85 -3.7 25.3 0
05:25 1022 30.18 851 25.13 -1.7 28.9 85 -3.9 25.1 0
05:26 1022 30.18 851 25.13 -1.8 28.8 86 -3.9 25 0
05:27 1022 30.18 851 25.13 -1.9 28.7 86 -4 24.9 0
05:28 1022 30.18 851 25.13 -1.9 28.6 86 -4 24.8 0
05:29 1022 30.18 851 25.13 -1.9 28.6 85 -4.1 24.6 0
05:30 1022 30.18 851 25.13 -1.9 28.6 84 -4.2 24.5 0
05:31 1022 30.18 851 25.13 -1.8 28.7 84 -4.1 24.6 0
05:32 1022 30.18 851 25.13 -1.8 28.7 85 -4.1 24.7 0
05:33 1022 30.18 851 25.13 -1.9 28.6 85 -4.1 24.6 0
05:34 1022 30.18 851 25.13 -1.9 28.6 85 -4.1 24.6 0
05:35 1022 30.18 851 25.13 -1.9 28.6 84 -4.2 24.4 0
05:36 1022 30.18 851 25.13 -1.8 28.8 84 -4.2 24.5 0
05:37 1022 30.18 851 25.13 -1.7 28.9 84 -4.1 24.7 0
05:38 1022 30.18 851 25.13 -1.7 28.9 85 -4 24.8 0
05:39 1022 30.18 851 25.13 -1.8 28.7 85 -4 24.7 0
05:40 1022 30.18 851 25.13 -1.9 28.6 85 -4 24.8 0
05:41 1022 30.18 851 25.13 -2 28.5 86 -4.1 24.7 0
05:42 1022 30.18 851 25.13 -2.1 28.3 86 -4.1 24.6 0
05:43 1022 30.18 851 25.13 -2.1 28.2 86 -4.1 24.6 0
05:44 1022 30.18 851 25.13 -2.1 28.2 86 -4.1 24.6 0
05:45 1022 30.18 851 25.13 -2 28.3 86 -4.1 24.7 0
05:46 1022 30.18 851 25.13 -2 28.4 85 -4.2 24.5 0
05:47 1022 30.18 851 25.13 -1.8 28.8 84 -4.1 24.5 0
05:48 1022 30.18 851 25.13 -1.7 29 83 -4.1 24.6 0
05:49 1022 30.18 851 25.13 -1.6 29 83 -4.2 24.5 0
05:50 1022 30.18 851 25.13 -1.6 29.2 82 -4.2 24.4 0
05:51 1022 30.18 851 25.13 -1.4 29.5 82 -4.1 24.6 0
05:52 1022 30.18 851 25.13 -1.3 29.6 82 -4.1 24.6 0
05:53 1022 30.18 851 25.13 -1.4 29.5 82 -4.1 24.6 0
05:54 1022 30.18 851 25.13 -1.5 29.3 82 -4.1 24.6 0
05:55 1022 30.18 851 25.13 -1.6 29.2 83 -4.1 24.6 0
05:56 1022 30.18 851 25.13 -1.8 28.8 84 -4.2 24.4 0
05:57 1022 30.18 851 25.13 -1.9 28.6 84 -4.2 24.4 0
05:58 1022 30.18 851 25.13 -1.9 28.5 84 -4.2 24.4 0
05:59 1022 30.18 851 25.13 -2 28.5 84 -4.2 24.4 0
06:00 1022 30.18 851 25.13 -2 28.4 85 -4.2 24.4 0
06:01 1022 30.18 851 25.13 -2 28.4 85 -4.2 24.4 0
06:02 1022 30.18 851 25.13 -2 28.4 85 -4.2 24.4 0
06:03 1021 30.15 851 25.13 -2 28.4 85 -4.2 24.5 0
06:04 1021 30.15 851 25.13 -1.9 28.5 85 -4.2 24.5 0
06:05 1021 30.15 851 25.13 -1.9 28.6 84 -4.2 24.4 0
06:06 1021 30.15 851 25.13 -2 28.5 85 -4.2 24.4 0
06:07 1021 30.15 850 25.1 -2 28.3 85 -4.2 24.4 0
06:08 1021 30.15 850 25.1 -2.2 28.1 86 -4.2 24.4 0
06:09 1021 30.15 850 25.1 -2.3 27.9 86 -4.3 24.3 0
06:10 1021 30.15 850 25.1 -2.3 27.9 86 -4.3 24.3 0
06:11 1021 30.15 850 25.1 -2.3 27.9 86 -4.3 24.3 0
06:12 1021 30.15 850 25.1 -2.3 27.9 86 -4.4 24.2 0
06:13 1021 30.15 850 25.1 -2.3 27.9 86 -4.3 24.2 0
06:14 1021 30.15 851 25.13 -2.3 27.9 86 -4.3 24.2 0
06:15 1021 30.15 851 25.13 -2.3 28 86 -4.3 24.2 0
06:16 1021 30.15 851 25.13 -2.2 28 85 -4.4 24.1 0
06:17 1022 30.18 851 25.13 -2.2 28 85 -4.4 24.1 0
06:18 1022 30.18 851 25.13 -2.2 28 85 -4.3 24.2 0
06:19 1021 30.15 851 25.13 -2.2 28 86 -4.3 24.2 0
06:20 1021 30.15 851 25.13 -2.2 28 85 -4.3 24.2 0
06:21 1021 30.15 851 25.13 -2.2 28.1 85 -4.3 24.2 0
06:22 1021 30.15 850 25.1 -2.1 28.2 85 -4.3 24.3 0
06:23 1021 30.15 850 25.1 -2 28.4 84 -4.3 24.2 0
06:24 1021 30.15 850 25.1 -2 28.4 84 -4.3 24.2 0
06:25 1021 30.15 850 25.1 -2 28.4 84 -4.3 24.2 0
06:26 1021 30.15 850 25.1 -2 28.4 85 -4.3 24.3 0
06:27 1021 30.15 850 25.1 -2 28.4 85 -4.2 24.4 0
06:28 1021 30.15 850 25.1 -1.9 28.5 83 -4.4 24.1 0
06:29 1021 30.15 850 25.1 -1.9 28.5 84 -4.3 24.3 0
06:30 1021 30.15 850 25.1 -2 28.4 84 -4.4 24.2 0
06:31 1021 30.15 850 25.1 -1.8 28.7 83 -4.3 24.2 0
06:32 1021 30.15 850 25.1 -1.8 28.8 83 -4.3 24.3 0
06:33 1021 30.15 850 25.1 -1.7 28.9 82 -4.4 24 0
06:34 1021 30.15 850 25.1 -1.6 29.1 81 -4.4 24.1 0
06:35 1021 30.15 850 25.1 -1.5 29.3 80 -4.5 23.8 0
06:36 1021 30.15 850 25.1 -1.3 29.7 78 -4.5 23.8 0
06:37 1021 30.15 850 25.1 -1 30.2 77 -4.5 23.9 0
06:38 1021 30.15 850 25.1 -0.8 30.6 77 -4.4 24.1 0
06:39 1021 30.15 850 25.1 -0.6 30.9 75 -4.5 23.9 0
06:40 1021 30.15 850 25.1 -0.5 31.2 74 -4.5 23.9 0
06:41 1021 30.15 850 25.1 -0.3 31.5 75 -4.2 24.4 0
06:42 1021 30.15 850 25.1 -0.2 31.6 73 -4.5 23.9 0
06:43 1021 30.15 850 25.1 -0.1 31.8 72 -4.5 23.9 0
06:44 1021 30.15 850 25.1 0 32 73 -4.2 24.4 0
06:45 1021 30.15 850 25.1 -0 32 73 -4.3 24.3 0
06:46 1021 30.15 850 25.1 -0.1 31.8 74 -4.2 24.5 0
06:47 1021 30.15 850 25.1 -0.3 31.5 74 -4.3 24.3 0
06:48 1021 30.15 850 25.1 -0.3 31.4 74 -4.4 24.1 0
06:49 1021 30.15 850 25.1 -0.3 31.5 74 -4.3 24.2 0
06:50 1021 30.15 850 25.1 -0.4 31.3 76 -4 24.7 0
06:51 1021 30.15 850 25.1 -0.7 30.7 78 -4.1 24.7 0
06:52 1021 30.15 850 25.1 -1 30.2 79 -4.2 24.5 0
06:53 1021 30.15 850 25.1 -1.2 29.8 80 -4.3 24.3 0
06:54 1021 30.15 850 25.1 -1.1 30 78 -4.6 23.8 0
06:55 1021 30.15 850 25.1 -1 30.2 77 -4.5 24 0
06:56 1021 30.15 850 25.1 -1 30.3 78 -4.3 24.3 0
06:57 1021 30.15 850 25.1 -1.1 30 80 -4.2 24.5 0
06:58 1021 30.15 850 25.1 -1.3 29.7 81 -4.2 24.5 0
06:59 1021 30.15 850 25.1 -1.5 29.4 81 -4.3 24.3 0
07:00 1021 30.15 850 25.1 -1.5 29.3 82 -4.2 24.4 0
07:01 1021 30.15 850 25.1 -1.6 29.2 82 -4.3 24.3 0
07:02 1021 30.15 850 25.1 -1.7 29 82 -4.3 24.2 0
07:03 1021 30.15 850 25.1 -1.7 29 82 -4.3 24.2 0
07:04 1021 30.15 850 25.1 -1.7 28.9 83 -4.3 24.3 0
07:05 1021 30.15 850 25.1 -1.7 28.9 83 -4.3 24.3 0
07:06 1021 30.15 850 25.1 -1.8 28.8 83 -4.3 24.2 0
07:07 1021 30.15 850 25.1 -1.8 28.8 83 -4.3 24.2 0
07:08 1021 30.15 850 25.1 -1.8 28.8 83 -4.4 24.2 0
07:09 1021 30.15 850 25.1 -1.8 28.8 83 -4.3 24.2 0
07:10 1021 30.15 850 25.1 -1.8 28.8 83 -4.3 24.2 0
07:11 1021 30.15 850 25.1 -1.7 28.9 83 -4.3 24.3 0
07:12 1021 30.15 850 25.1 -1.7 28.9 83 -4.3 24.3 0
07:13 1021 30.15 850 25.1 -1.7 28.9 83 -4.3 24.3 0
07:14 1021 30.15 850 25.1 -1.8 28.8 83 -4.3 24.3 0
07:15 1021 30.15 850 25.1 -1.8 28.8 83 -4.3 24.3 0
07:16 1021 30.15 850 25.1 -1.8 28.8 83 -4.2 24.4 0
07:17 1021 30.15 850 25.1 -1.9 28.6 84 -4.3 24.3 0
07:18 1021 30.15 850 25.1 -1.9 28.6 84 -4.3 24.3 0
07:19 1021 30.15 850 25.1 -1.9 28.7 84 -4.3 24.3 0
07:20 1021 30.15 850 25.1 -1.9 28.6 84 -4.2 24.4 0
07:21 1021 30.15 850 25.1 -2 28.5 85 -4.2 24.4 0
07:22 1021 30.15 850 25.1 -2 28.5 85 -4.2 24.5 0
07:23 1021 30.15 850 25.1 -2 28.5 85 -4.1 24.6 0
07:24 1021 30.15 850 25.1 -2 28.3 86 -4.1 24.5 0
07:25 1021 30.15 850 25.1 -2 28.3 86 -4.1 24.6 0
07:26 1021 30.15 850 25.1 -2.1 28.2 86 -4.1 24.6 0
07:27 1021 30.15 850 25.1 -2 28.3 86 -4 24.7 0
07:28 1021 30.15 850 25.1 -2.1 28.3 86 -4 24.7 0
07:29 1021 30.15 850 25.1 -2.1 28.2 87 -4 24.8 0
07:30 1021 30.15 850 25.1 -2.2 28.1 87 -4 24.7 0
07:31 1021 30.15 850 25.1 -2.2 28.1 87 -4 24.8 0
07:32 1021 30.15 850 25.1 -2.2 28.1 87 -4 24.8 0
07:33 1021 30.15 850 25.1 -2.2 28.1 87 -4 24.8 0
07:34 1021 30.15 850 25.1 -2.1 28.2 87 -4 24.8 0
07:35 1021 30.15 850 25.1 -2.1 28.3 87 -4 24.8 0
07:36 1021 30.15 850 25.1 -2 28.4 86 -4 24.8 0
07:37 1021 30.15 850 25.1 -1.9 28.6 86 -3.8 25.1 0
07:38 1021 30.15 850 25.1 -1.8 28.7 85 -4 24.9 0
07:39 1021 30.15 850 25.1 -1.7 29 85 -3.9 24.9 0
07:40 1021 30.15 850 25.1 -1.6 29.1 85 -3.8 25.1 0
07:41 1021 30.15 850 25.1 -1.5 29.3 85 -3.7 25.3 0
07:42 1021 30.15 850 25.1 -1.5 29.3 85 -3.8 25.2 0
07:43 1021 30.15 850 25.1 -1.4 29.4 84 -3.8 25.2 0
07:44 1021 30.15 850 25.1 -1.4 29.6 84 -3.7 25.3 0
07:45 1021 30.15 850 25.1 -1.3 29.7 83 -3.8 25.1 0
07:46 1021 30.15 850 25.1 -1.2 29.9 81 -4 24.8 0
07:47 1021 30.15 850 25.1 -1 30.3 81 -3.8 25.2 0
07:48 1021 30.15 850 25.1 -0.8 30.5 81 -3.7 25.4 0
07:49 1021 30.15 850 25.1 -0.8 30.6 81 -3.6 25.5 0
07:50 1021 30.15 850 25.1 -0.8 30.7 79 -3.9 25 0
07:51 1021 30.15 851 25.13 -0.6 31 80 -3.7 25.4 0
07:52 1021 30.15 851 25.13 -0.5 31.1 79 -3.6 25.5 0
07:53 1021 30.15 851 25.13 -0.5 31.1 80 -3.5 25.7 0
07:54 1021 30.15 850 25.1 -0.6 31 80 -3.5 25.6 0
07:55 1021 30.15 850 25.1 -0.6 30.9 78 -3.9 25 0
07:56 1021 30.15 850 25.1 -0.5 31.2 77 -4 24.8 0
07:57 1021 30.15 851 25.13 -0.3 31.5 76 -3.9 24.9 0
07:58 1021 30.15 851 25.13 -0.1 31.8 74 -4.2 24.5 0
07:59 1021 30.15 851 25.13 0 32.1 75 -3.9 24.9 0
08:00 1021 30.15 851 25.13 0.1 32.2 73 -4.1 24.7 0
08:01 1021 30.15 851 25.13 0.3 32.5 72 -4.2 24.5 0
08:02 1021 30.15 850 25.1 0.4 32.7 71 -4.2 24.5 0
08:03 1021 30.15 850 25.1 0.5 32.9 72 -4 24.9 0
08:04 1021 30.15 850 25.1 0.6 33.1 71 -4 24.7 0
08:05 1021 30.15 851 25.13 0.7 33.3 71 -4 24.8 0
08:06 1021 30.15 851 25.13 0.7 33.3 73 -3.6 25.6 0
08:07 1021 30.15 850 25.1 0.7 33.3 74 -3.4 25.8 0
08:08 1021 30.15 850 25.1 0.6 33.1 75 -3.4 25.9 0
08:09 1021 30.15 850 25.1 0.4 32.7 76 -3.4 25.8 0
08:10 1021 30.15 850 25.1 0.3 32.5 76 -3.4 25.8 0
08:11 1021 30.15 851 25.13 0.1 32.3 76 -3.6 25.6 0
08:12 1021 30.15 850 25.1 0.1 32.2 76 -3.5 25.7 0
08:13 1021 30.15 850 25.1 0.1 32.2 78 -3.3 26.1 0
08:14 1021 30.15 850 25.1 0 32 79 -3.2 26.2 0
08:15 1021 30.15 850 25.1 -0.1 31.8 81 -3.1 26.4 0
08:16 1021 30.15 850 25.1 -0.3 31.5 81 -3.2 26.2 0
08:17 1021 30.15 850 25.1 -0.4 31.4 82 -3.1 26.3 0
08:18 1021 30.15 850 25.1 -0.5 31.2 82 -3.1 26.3 0
08:19 1021 30.15 850 25.1 -0.5 31.1 82 -3.3 26.1 0
08:20 1021 30.15 850 25.1 -0.5 31.1 82 -3.2 26.2 0
08:21 1021 30.15 850 25.1 -0.5 31.1 82 -3.3 26.1 0
08:22 1021 30.15 850 25.1 -0.5 31 82 -3.2 26.2 0
08:23 1021 30.15 850 25.1 -0.5 31.1 83 -3.1 26.5 0
08:24 1021 30.15 850 25.1 -0.6 30.9 84 -3 26.6 0
08:25 1021 30.15 850 25.1 -0.7 30.8 85 -3 26.7 0
08:26 1021 30.15 850 25.1 -0.8 30.6 84 -3.1 26.4 0
08:27 1021 30.15 850 25.1 -0.7 30.7 84 -3.1 26.5 0
08:28 1021 30.15 850 25.1 -0.8 30.6 84 -3.2 26.3 0
08:29 1021 30.15 850 25.1 -0.7 30.7 84 -3.1 26.4 0
08:30 1021 30.15 850 25.1 -0.7 30.8 83 -3.2 26.3 0
08:31 1021 30.15 850 25.1 -0.7 30.8 84 -3 26.6 0
08:32 1021 30.15 850 25.1 -0.7 30.8 85 -3 26.6 0
08:33 1021 30.15 850 25.1 -0.6 30.8 85 -2.9 26.8 0
08:34 1021 30.15 850 25.1 -0.7 30.8 84 -3 26.6 0
08:35 1021 30.15 850 25.1 -0.7 30.8 84 -3 26.6 0
08:36 1021 30.15 850 25.1 -0.6 31 83 -3 26.5 0
08:37 1021 30.15 850 25.1 -0.6 31 84 -2.9 26.7 0
08:38 1021 30.15 850 25.1 -0.5 31.1 84 -2.9 26.7 0
08:39 1021 30.15 850 25.1 -0.5 31.1 84 -2.9 26.7 0
08:40 1021 30.15 850 25.1 -0.5 31.1 83 -3 26.6 0
08:41 1021 30.15 850 25.1 -0.4 31.3 82 -3 26.5 0
08:42 1021 30.15 850 25.1 -0.3 31.5 81 -3.1 26.5 0
08:43 1021 30.15 850 25.1 -0.2 31.6 80 -3.2 26.2 0
08:44 1021 30.15 850 25.1 -0.1 31.9 80 -3.1 26.4 0
08:45 1021 30.15 850 25.1 0 32 81 -2.9 26.7 0
08:46 1021 30.15 850 25.1 0 32 81 -2.9 26.8 0
08:47 1021 30.15 850 25.1 -0 31.9 82 -2.8 27 0
08:48 1021 30.15 850 25.1 -0 31.9 82 -2.8 27 0
08:49 1021 30.15 850 25.1 -0.1 31.9 82 -2.8 27 0
08:50 1021 30.15 850 25.1 -0.1 31.9 81 -2.9 26.8 0
08:51 1021 30.15 851 25.13 -0 32 82 -2.8 27 0
08:52 1021 30.15 851 25.13 0 32 81 -2.8 26.9 0
08:53 1021 30.15 851 25.13 0.1 32.1 81 -2.8 26.9 0
08:54 1021 30.15 851 25.13 0.1 32.2 81 -2.7 27.1 0
08:55 1021 30.15 851 25.13 0.1 32.2 81 -2.8 26.9 0
08:56 1021 30.15 851 25.13 0.2 32.3 80 -2.8 26.9 0
08:57 1022 30.18 851 25.13 0.2 32.4 80 -2.8 26.9 0
08:58 1021 30.15 851 25.13 0.3 32.5 80 -2.7 27.1 0
08:59 1021 30.15 851 25.13 0.3 32.6 80 -2.7 27.2 0
09:00 1021 30.15 851 25.13 0.3 32.6 80 -2.7 27.1 0
09:01 1021 30.15 851 25.13 0.3 32.6 79 -2.8 26.9 0
09:02 1021 30.15 851 25.13 0.4 32.7 78 -3 26.5 0
09:03 1021 30.15 851 25.13 0.4 32.8 75 -3.4 25.9 0
09:04 1021 30.15 851 25.13 0.6 33.1 77 -3 26.6 0
09:05 1021 30.15 851 25.13 0.8 33.4 74 -3.3 26 0
09:06 1021 30.15 851 25.13 0.9 33.7 74 -3.2 26.3 0
09:07 1021 30.15 851 25.13 1 33.8 75 -3 26.6 0
09:08 1021 30.15 851 25.13 1.1 33.9 75 -2.8 26.9 0
09:09 1021 30.15 851 25.13 1 33.9 73 -3.2 26.2 0
09:10 1021 30.15 851 25.13 1.1 34 74 -3 26.5 0
09:11 1021 30.15 851 25.13 1.1 33.9 74 -3.1 26.4 0
09:12 1021 30.15 851 25.13 1 33.9 76 -2.8 26.9 0
09:13 1021 30.15 851 25.13 1 33.8 75 -3 26.6 0
09:14 1021 30.15 851 25.13 1 33.8 74 -3.1 26.5 0
09:15 1021 30.15 851 25.13 1.1 34 76 -2.7 27.2 0
09:16 1021 30.15 851 25.13 1.1 33.9 75 -2.8 26.9 0
09:17 1021 30.15 851 25.13 1 33.9 76 -2.7 27.1 0
09:18 1021 30.15 851 25.13 1 33.8 77 -2.6 27.3 0
09:19 1021 30.15 851 25.13 0.9 33.7 77 -2.6 27.3 0
09:20 1022 30.18 851 25.13 0.8 33.5 78 -2.6 27.4 0
09:21 1022 30.18 851 25.13 0.8 33.5 78 -2.6 27.3 0
09:22 1022 30.18 851 25.13 0.8 33.5 78 -2.5 27.4 0
09:23 1022 30.18 851 25.13 0.8 33.5 78 -2.6 27.2 0
09:24 1022 30.18 851 25.13 0.8 33.5 78 -2.6 27.3 0
09:25 1021 30.15 851 25.13 0.8 33.5 78 -2.6 27.3 0
09:26 1022 30.18 851 25.13 0.8 33.4 77 -2.7 27.1 0
09:27 1022 30.18 851 25.13 0.9 33.5 77 -2.7 27.2 0
09:28 1022 30.18 851 25.13 0.8 33.5 78 -2.6 27.3 0
09:29 1022 30.18 851 25.13 0.8 33.4 77 -2.7 27.1 0
09:30 1022 30.18 851 25.13 0.8 33.5 78 -2.6 27.2 0
09:31 1022 30.18 851 25.13 0.9 33.6 78 -2.6 27.3 0
09:32 1022 30.18 851 25.13 0.9 33.6 78 -2.5 27.5 0
09:33 1022 30.18 851 25.13 0.9 33.5 77 -2.8 27 0
09:34 1022 30.18 851 25.13 0.9 33.6 77 -2.7 27.2 0
09:35 1022 30.18 851 25.13 0.9 33.7 78 -2.5 27.5 0
09:36 1022 30.18 851 25.13 0.9 33.7 78 -2.5 27.4 0
09:37 1022 30.18 851 25.13 0.9 33.6 78 -2.5 27.5 0
09:38 1022 30.18 851 25.13 0.9 33.6 79 -2.4 27.7 0
09:39 1022 30.18 851 25.13 0.9 33.5 79 -2.4 27.8 0
09:40 1022 30.18 851 25.13 0.8 33.5 79 -2.3 27.8 0
09:41 1022 30.18 851 25.13 0.9 33.6 79 -2.4 27.7 0
09:42 1022 30.18 851 25.13 0.9 33.6 79 -2.4 27.7 0
09:43 1022 30.18 851 25.13 0.9 33.6 79 -2.4 27.7 0
09:44 1022 30.18 851 25.13 1 33.7 77 -2.6 27.4 0
09:45 1022 30.18 851 25.13 1 33.8 78 -2.4 27.7 0
09:46 1022 30.18 851 25.13 1.1 33.9 77 -2.6 27.4 0
09:47 1022 30.18 851 25.13 1.1 34 76 -2.6 27.4 0
09:48 1022 30.18 851 25.13 1.2 34.2 77 -2.4 27.6 0
09:49 1022 30.18 851 25.13 1.2 34.1 79 -2.1 28.3 0
09:50 1022 30.18 851 25.13 1.1 33.9 80 -1.9 28.5 0
09:51 1022 30.18 851 25.13 0.8 33.5 82 -2 28.5 0
09:52 1022 30.18 851 25.13 0.7 33.2 82 -2 28.4 0
09:53 1022 30.18 851 25.13 0.7 33.3 81 -2.1 28.2 0
09:54 1022 30.18 851 25.13 0.7 33.3 81 -2.2 28 0
09:55 1022 30.18 851 25.13 0.8 33.4 81 -2.1 28.1 0
09:56 1022 30.18 851 25.13 0.8 33.4 81 -2.1 28.3 0
09:57 1022 30.18 851 25.13 0.8 33.4 81 -2.1 28.2 0
09:58 1022 30.18 851 25.13 0.8 33.5 80 -2.3 27.8 0
09:59 1022 30.18 851 25.13 0.9 33.7 79 -2.3 27.8 0
10:00 1022 30.18 851 25.13 1 33.8 78 -2.3 27.8 0
10:01 1022 30.18 851 25.13 1.1 34.1 78 -2.2 28 0
10:02 1022 30.18 851 25.13 1.2 34.1 78 -2.3 27.9 0
10:03 1022 30.18 851 25.13 1.3 34.3 78 -2.2 28 0
10:04 1022 30.18 851 25.13 1.3 34.3 78 -2.2 28.1 0
10:05 1022 30.18 851 25.13 1.2 34.2 78 -2.2 28 0
10:06 1022 30.18 851 25.13 1.3 34.3 76 -2.5 27.5 0
10:07 1022 30.18 851 25.13 1.4 34.6 76 -2.3 27.9 0
10:08 1022 30.18 851 25.13 1.5 34.7 77 -2.1 28.3 0
10:09 1022 30.18 851 25.13 1.6 34.8 76 -2.3 27.9 0
10:10 1022 30.18 851 25.13 1.6 34.9 77 -2.1 28.3 0
10:11 1021 30.15 851 25.13 1.6 34.9 77 -2 28.4 0
10:12 1021 30.15 851 25.13 1.6 34.9 77 -2 28.5 0
10:13 1021 30.15 851 25.13 1.6 34.9 77 -2 28.4 0
10:14 1021 30.15 851 25.13 1.6 34.9 76 -2.1 28.2 0
10:15 1021 30.15 851 25.13 1.8 35.2 75 -2.3 27.9 0
10:16 1022 30.18 851 25.13 1.8 35.3 76 -2 28.4 0
10:17 1022 30.18 851 25.13 1.8 35.3 77 -1.8 28.8 0
10:18 1022 30.18 851 25.13 1.9 35.3 78 -1.5 29.3 0
10:19 1022 30.18 851 25.13 1.9 35.4 78 -1.5 29.3 0
10:20 1022 30.18 851 25.13 1.8 35.3 78 -1.6 29.1 0
10:21 1021 30.15 851 25.13 1.9 35.3 77 -1.8 28.8 0
10:22 1021 30.15 851 25.13 1.9 35.4 77 -1.7 28.9 0
10:23 1021 30.15 851 25.13 1.9 35.3 77 -1.8 28.8 0
10:24 1021 30.15 851 25.13 1.9 35.5 70 -3 26.7 0
10:25 1021 30.15 851 25.13 2.2 36 73 -2.2 28.1 0
10:26 1021 30.15 851 25.13 2.4 36.3 71 -2.3 27.9 0
10:27 1021 30.15 851 25.13 2.5 36.4 72 -2.1 28.3 0
10:28 1021 30.15 851 25.13 2.5 36.5 73 -1.9 28.6 0
10:29 1021 30.15 851 25.13 2.5 36.6 71 -2.3 27.9 0
10:30 1021 30.15 851 25.13 2.7 36.8 69 -2.5 27.5 0
10:31 1021 30.15 851 25.13 2.9 37.1 71 -2 28.5 0
10:32 1021 30.15 851 25.13 2.9 37.2 69 -2.3 27.8 0
10:33 1021 30.15 851 25.13 3 37.3 68 -2.4 27.8 0
10:34 1021 30.15 851 25.13 3 37.5 69 -2 28.3 0
10:35 1021 30.15 851 25.13 3 37.5 68 -2.2 28.1 0
10:36 1021 30.15 850 25.1 3.2 37.7 66 -2.6 27.4 0
10:37 1021 30.15 850 25.1 3.4 38 65 -2.6 27.3 0
10:38 1021 30.15 850 25.1 3.5 38.3 62 -3.1 26.4 0
10:39 1021 30.15 850 25.1 3.7 38.7 62 -2.8 26.9 0
10:40 1021 30.15 850 25.1 3.9 39.1 62 -2.7 27.2 0
10:41 1021 30.15 850 25.1 4 39.2 62 -2.7 27.2 0
10:42 1021 30.15 850 25.1 4.2 39.5 59 -3 26.5 0
10:43 1021 30.15 850 25.1 4.3 39.8 60 -2.7 27.2 0
10:44 1021 30.15 850 25.1 4.4 39.9 59 -2.9 26.9 0
10:45 1021 30.15 850 25.1 4.5 40.1 59 -2.8 26.9 0
10:46 1021 30.15 850 25.1 4.6 40.2 59 -2.9 26.9 0
10:47 1021 30.15 850 25.1 4.7 40.4 59 -2.8 27 0
10:48 1021 30.15 850 25.1 4.8 40.6 58 -2.7 27.2 0
10:49 1021 30.15 850 25.1 5 41 58 -2.7 27.2 0
10:50 1021 30.15 850 25.1 5.2 41.3 57 -2.7 27.1 0
10:51 1021 30.15 850 25.1 5.2 41.4 57 -2.7 27.2 0
10:52 1021 30.15 850 25.1 5.3 41.5 58 -2.4 27.7 0
10:53 1021 30.15 850 25.1 5.4 41.7 58 -2.3 27.9 0
10:54 1021 30.15 850 25.1 5.6 42 57 -2.2 28 0
10:55 1021 30.15 850 25.1 5.7 42.3 56 -2.2 28 0
10:56 1021 30.15 850 25.1 5.9 42.7 57 -2.1 28.3 0
10:57 1021 30.15 850 25.1 6 42.9 54 -2.5 27.5 0
10:58 1021 30.15 850 25.1 6 42.8 55 -2.5 27.6 0
10:59 1021 30.15 850 25.1 5.9 42.6 55 -2.4 27.6 0
11:00 1021 30.15 850 25.1 5.7 42.3 57 -2.2 28 0
11:01 1021 30.15 850 25.1 5.6 42 57 -2.2 28 0
11:02 1021 30.15 850 25.1 5.3 41.6 58 -2.3 27.9 0
11:03 1021 30.15 850 25.1 5.2 41.4 59 -2.1 28.2 0
11:04 1021 30.15 850 25.1 5.2 41.3 60 -1.9 28.6 0
11:05 1021 30.15 850 25.1 5.1 41.3 59 -2.3 27.8 0
11:06 1021 30.15 850 25.1 5.1 41.1 60 -2 28.3 0
11:07 1021 30.15 850 25.1 4.9 40.9 60 -2.2 28.1 0
11:08 1021 30.15 850 25.1 4.8 40.7 60 -2.2 28.1 0
11:09 1021 30.15 850 25.1 5 41 58 -2.6 27.4 0
11:10 1021 30.15 850 25.1 5.2 41.4 57 -2.6 27.3 0
11:11 1021 30.15 850 25.1 5.4 41.7 58 -2.2 28 0
11:12 1021 30.15 850 25.1 5.5 41.9 57 -2.3 27.8 0
11:13 1021 30.15 850 25.1 5.4 41.8 60 -1.7 28.9 0
11:14 1021 30.15 850 25.1 5.2 41.4 58 -2.3 27.9 0
11:15 1021 30.15 850 25.1 5.1 41.2 60 -2.1 28.2 0
11:16 1021 30.15 850 25.1 5.1 41.2 59 -2.3 27.8 0
11:17 1021 30.15 850 25.1 5.2 41.4 57 -2.6 27.4 0
11:18 1021 30.15 850 25.1 5.3 41.6 57 -2.5 27.5 0
11:19 1021 30.15 850 25.1 5.5 42 56 -2.4 27.6 0
11:20 1021 30.15 850 25.1 5.7 42.2 56 -2.4 27.6 0
11:21 1021 30.15 850 25.1 5.9 42.5 56 -2.3 27.8 0
11:22 1021 30.15 850 25.1 6 42.8 55 -2.3 27.8 0
11:23 1021 30.15 850 25.1 6 42.7 55 -2.4 27.7 0
11:24 1021 30.15 850 25.1 5.9 42.6 56 -2.2 28 0
11:25 1021 30.15 850 25.1 5.9 42.5 56 -2.2 28 0
11:26 1021 30.15 850 25.1 5.8 42.5 56 -2.3 27.9 0
11:27 1021 30.15 850 25.1 5.8 42.4 57 -2 28.4 0
11:28 1021 30.15 850 25.1 5.7 42.3 60 -1.5 29.4 0
11:29 1021 30.15 850 25.1 5.6 42 59 -1.8 28.7 0
11:30 1020 30.12 850 25.1 5.5 41.9 58 -2.2 28.1 0
11:31 1020 30.12 850 25.1 5.5 41.9 58 -2.2 28.1 0
11:32 1020 30.12 850 25.1 5.5 41.9 57 -2.2 28 0
11:33 1020 30.12 850 25.1 5.4 41.7 59 -2 28.3 0
11:34 1020 30.12 849 25.07 5.2 41.3 60 -2 28.4 0
11:35 1020 30.12 849 25.07 4.9 40.9 60 -2.2 28 0
11:36 1020 30.12 850 25.1 4.8 40.7 60 -2.2 28.1 0
11:37 1020 30.12 849 25.07 4.8 40.6 61 -2.1 28.2 0
11:38 1020 30.12 849 25.07 4.7 40.4 61 -2.1 28.2 0
11:39 1020 30.12 849 25.07 4.5 40.1 62 -2.2 28.1 0
11:40 1020 30.12 849 25.07 4.5 40.1 61 -2.3 27.9 0
11:41 1020 30.12 849 25.07 4.5 40.1 57 -3.3 26.1 0
11:42 1020 30.12 849 25.07 4.7 40.5 58 -2.9 26.7 0
11:43 1020 30.12 849 25.07 4.9 40.9 60 -2.3 27.9 0
11:44 1020 30.12 849 25.07 5 41 60 -2.1 28.2 0
11:45 1020 30.12 849 25.07 4.9 40.8 60 -2.2 28.1 0
11:46 1020 30.12 849 25.07 4.7 40.5 61 -2.1 28.2 0
11:47 1020 30.12 849 25.07 4.7 40.4 60 -2.3 27.8 0
11:48 1020 30.12 849 25.07 4.7 40.5 59 -2.5 27.5 0
11:49 1020 30.12 849 25.07 4.8 40.6 60 -2.2 28 0
11:50 1020 30.12 849 25.07 4.8 40.7 60 -2.4 27.8 0
11:51 1020 30.12 849 25.07 4.9 40.8 60 -2.2 28.1 0
11:52 1020 30.12 849 25.07 4.9 40.9 60 -2.1 28.2 0
11:53 1020 30.12 849 25.07 4.9 40.8 60 -2.3 27.9 0
11:54 1020 30.12 849 25.07 4.9 40.8 59 -2.5 27.6 0
11:55 1020 30.12 849 25.07 4.8 40.7 61 -2.1 28.2 0
11:56 1020 30.12 849 25.07 4.8 40.6 61 -2.1 28.2 0
11:57 1020 30.12 849 25.07 4.8 40.7 61 -1.9 28.5 0
11:58 1020 30.12 849 25.07 4.7 40.5 59 -2.5 27.5 0
11:59 1020 30.12 849 25.07 4.7 40.5 59 -2.6 27.3 0
12:00 1020 30.12 849 25.07 4.8 40.6 58 -2.7 27.1 0
12:01 1019 30.09 849 25.07 4.8 40.6 59 -2.6 27.3 0
12:02 1020 30.12 849 25.07 4.8 40.6 59 -2.4 27.6 0
12:03 1019 30.09 849 25.07 4.8 40.6 59 -2.4 27.7 0
12:04 1019 30.09 849 25.07 4.8 40.6 59 -2.5 27.6 0
12:05 1019 30.09 849 25.07 4.8 40.7 58 -2.8 26.9 0
12:06 1019 30.09 849 25.07 5 40.9 57 -2.9 26.8 0
12:07 1019 30.09 849 25.07 5.1 41.1 59 -2.4 27.7 0
12:08 1019 30.09 849 25.07 5 40.9 59 -2.4 27.6 0
12:09 1019 30.09 849 25.07 4.9 40.8 60 -2.3 27.9 0
12:10 1019 30.09 849 25.07 4.8 40.6 60 -2.3 27.8 0
12:11 1019 30.09 849 25.07 4.7 40.5 60 -2.3 27.8 0
12:12 1019 30.09 849 25.07 4.7 40.4 61 -2.2 28.1 0
12:13 1019 30.09 849 25.07 4.7 40.4 62 -2 28.4 0
12:14 1019 30.09 849 25.07 4.6 40.3 62 -2 28.4 0
12:15 1019 30.09 849 25.07 4.6 40.3 63 -1.8 28.8 0
12:16 1019 30.09 849 25.07 4.5 40.1 64 -1.7 28.9 0
12:17 1019 30.09 849 25.07 4.4 39.9 63 -1.9 28.5 0
12:18 1019 30.09 849 25.07 4.4 39.9 64 -1.9 28.6 0
12:19 1019 30.09 849 25.07 4.5 40 63 -2 28.4 0
12:20 1019 30.09 849 25.07 4.5 40.1 62 -2.2 28 0
12:21 1019 30.09 849 25.07 4.5 40.1 62 -2.2 28 0
12:22 1019 30.09 849 25.07 4.6 40.2 62 -2.1 28.2 0
12:23 1019 30.09 848 25.04 4.6 40.3 62 -2.1 28.2 0
12:24 1019 30.09 848 25.04 4.7 40.4 59 -2.6 27.2 0
12:25 1019 30.09 848 25.04 4.8 40.7 60 -2.4 27.8 0
12:26 1019 30.09 848 25.04 4.9 40.8 59 -2.5 27.5 0
12:27 1019 30.09 848 25.04 5 40.9 60 -2.2 28.1 0
12:28 1019 30.09 848 25.04 4.9 40.8 60 -2.2 28.1 0
12:29 1019 30.09 848 25.04 4.9 40.8 62 -1.8 28.8 0
12:30 1019 30.09 848 25.04 4.8 40.6 61 -2.1 28.3 0
12:31 1019 30.09 848 25.04 4.6 40.3 61 -2.3 27.9 0
12:32 1019 30.09 848 25.04 4.6 40.3 60 -2.4 27.6 0
12:33 1019 30.09 848 25.04 4.6 40.3 61 -2.3 27.9 0
12:34 1019 30.09 848 25.04 4.6 40.2 61 -2.2 28 0
12:35 1019 30.09 848 25.04 4.5 40 62 -2.2 28.1 0
12:36 1019 30.09 848 25.04 4.4 39.8 63 -2 28.3 0
12:37 1019 30.09 848 25.04 4.3 39.8 63 -2 28.4 0
12:38 1019 30.09 848 25.04 4.3 39.8 64 -1.9 28.6 0
12:39 1019 30.09 848 25.04 4.5 40 62 -2.1 28.2 0
12:40 1019 30.09 848 25.04 4.5 40.2 62 -2.1 28.3 0
12:41 1019 30.09 848 25.04 4.6 40.3 62 -2.1 28.2 0
12:42 1019 30.09 848 25.04 4.7 40.5 60 -2.3 27.8 0
12:43 1019 30.09 848 25.04 5 41.1 59 -2.2 28 0
12:44 1019 30.09 848 25.04 5.5 42 57 -2.3 27.8 0
12:45 1019 30.09 848 25.04 6.1 43 54 -2.4 27.7 0
12:46 1019 30.09 848 25.04 6.5 43.7 53 -2.5 27.5 0
12:47 1019 30.09 848 25.04 6.8 44.2 51 -2.6 27.4 0
12:48 1019 30.09 848 25.04 6.8 44.2 52 -2.4 27.8 0
12:49 1019 30.09 848 25.04 6.6 43.8 53 -2.4 27.7 0
12:50 1019 30.09 848 25.04 6.4 43.6 54 -2.2 28 0
12:51 1019 30.09 848 25.04 6.4 43.5 54 -2.3 27.9 0
12:52 1019 30.09 848 25.04 6.3 43.4 55 -2 28.3 0
12:53 1019 30.09 848 25.04 6.2 43.2 56 -1.8 28.7 0
12:54 1019 30.09 848 25.04 6 42.7 56 -2.2 28 0
12:55 1019 30.09 848 25.04 5.9 42.6 55 -2.4 27.8 0
12:56 1019 30.09 848 25.04 5.9 42.7 54 -2.6 27.3 0
12:57 1019 30.09 848 25.04 6 42.7 55 -2.3 27.9 0
12:58 1019 30.09 848 25.04 5.9 42.7 55 -2.3 27.8 0
12:59 1019 30.09 848 25.04 5.9 42.5 56 -2.3 27.8 0
13:00 1019 30.09 848 25.04 5.7 42.2 57 -2.1 28.3 0
13:01 1019 30.09 848 25.04 5.4 41.8 59 -1.9 28.6 0
13:02 1019 30.09 848 25.04 5.2 41.4 60 -2 28.5 0
13:03 1019 30.09 848 25.04 5.1 41.2 61 -1.9 28.6 0
13:04 1019 30.09 848 25.04 5.2 41.3 58 -2.3 27.8 0
13:05 1019 30.09 848 25.04 5.4 41.7 58 -2.2 28 0
13:06 1019 30.09 848 25.04 5.6 42.1 57 -2.2 28 0
13:07 1019 30.09 848 25.04 5.8 42.4 56 -2.2 28 0
13:08 1019 30.09 848 25.04 5.8 42.5 57 -2 28.4 0
13:09 1019 30.09 848 25.04 5.7 42.2 58 -2 28.5 0
13:10 1018 30.06 848 25.04 5.5 41.8 59 -1.8 28.7 0
13:11 1019 30.09 848 25.04 5.3 41.5 60 -1.8 28.8 0
13:12 1019 30.09 848 25.04 5.2 41.3 61 -1.7 28.9 0
13:13 1019 30.09 848 25.04 5.1 41.2 61 -1.7 28.9 0
13:14 1019 30.09 848 25.04 5.1 41.1 60 -2 28.4 0
13:15 1019 30.09 848 25.04 5 41.1 60 -2.1 28.3 0
13:16 1019 30.09 848 25.04 5.1 41.1 59 -2.3 27.8 0
13:17 1019 30.09 848 25.04 5.1 41.2 60 -2 28.4 0
13:18 1019 30.09 848 25.04 5.1 41.1 60 -2 28.3 0
13:19 1019 30.09 848 25.04 5.1 41.2 60 -2 28.4 0
13:20 1019 30.09 848 25.04 5.1 41.3 60 -2 28.5 0
13:21 1019 30.09 848 25.04 5.2 41.3 58 -2.3 27.9 0
13:22 1019 30.09 848 25.04 5.3 41.5 58 -2.3 27.9 0
13:23 1018 30.06 848 25.04 5.4 41.8 56 -2.8 27 0
13:24 1018 30.06 848 25.04 5.7 42.3 53 -3 26.5 0
13:25 1018 30.06 847 25.01 5.9 42.7 53 -3 26.6 0
13:26 1018 30.06 847 25.01 6.1 42.9 53 -2.7 27.1 0
13:27 1018 30.06 847 25.01 6.2 43.2 51 -3.1 26.5 0
13:28 1018 30.06 847 25.01 6.4 43.4 52 -2.9 26.8 0
13:29 1018 30.06 847 25.01 6.6 43.8 51 -2.9 26.8 0
13:30 1018 30.06 847 25.01 6.7 44.1 53 -2.2 28 0
13:31 1018 30.06 847 25.01 6.7 44.1 56 -1.6 29.2 0
13:32 1018 30.06 847 25.01 6.5 43.7 58 -1.1 30 0
13:33 1018 30.06 847 25.01 6.3 43.3 59 -1 30.2 0
13:34 1018 30.06 847 25.01 6 42.9 60 -1.1 29.9 0
13:35 1018 30.06 847 25.01 5.9 42.7 58 -1.6 29.1 0
13:36 1018 30.06 847 25.01 6.2 43.1 56 -2 28.4 0
13:37 1018 30.06 847 25.01 6.7 44 53 -2.2 28 0
13:38 1018 30.06 847 25.01 7.2 44.9 50 -2.5 27.4 0
13:39 1018 30.06 847 25.01 7.5 45.6 47 -3 26.6 0
13:40 1018 30.06 847 25.01 7.7 45.8 46 -3.1 26.5 0
13:41 1018 30.06 847 25.01 7.7 45.8 44 -3.8 25.2 0
13:42 1018 30.06 847 25.01 8 46.4 43 -3.9 25 0
13:43 1018 30.06 847 25.01 8.4 47.2 44 -3.1 26.4 0
13:44 1018 30.06 847 25.01 8.8 47.8 42 -3.3 26.1 0
13:45 1018 30.06 847 25.01 9 48.1 45 -2.2 28 0
13:46 1018 30.06 847 25.01 9 48.2 46 -2 28.4 0
13:47 1018 30.06 847 25.01 8.8 47.8 50 -1.1 30 0
13:48 1018 30.06 847 25.01 8.2 46.7 51 -1.2 29.8 0
13:49 1018 30.06 847 25.01 7.7 45.9 55 -0.8 30.6 0
13:50 1018 30.06 847 25.01 7.3 45.2 58 -0.4 31.2 0
13:51 1018 30.06 847 25.01 6.9 44.5 57 -1 30.1 0
13:52 1018 30.06 847 25.01 6.8 44.2 58 -0.9 30.4 0
13:53 1018 30.06 847 25.01 6.5 43.8 58 -1 30.2 0
13:54 1018 30.06 847 25.01 6.5 43.6 57 -1.5 29.4 0
13:55 1018 30.06 847 25.01 6.3 43.4 57 -1.7 29 0
13:56 1018 30.06 847 25.01 6.2 43.2 58 -1.4 29.5 0
13:57 1018 30.06 847 25.01 6.2 43.2 58 -1.5 29.4 0
13:58 1018 30.06 847 25.01 6.1 43.1 59 -1.2 29.9 0
13:59 1018 30.06 847 25.01 6.1 42.9 59 -1.3 29.6 0
14:00 1018 30.06 847 25.01 6.1 42.9 59 -1.2 29.8 0
14:01 1018 30.06 847 25.01 6.1 43 60 -1.1 30.1 0
14:02 1018 30.06 847 25.01 6.1 43 59 -1.3 29.6 0
14:03 1018 30.06 847 25.01 6.2 43.2 58 -1.4 29.6 0
14:04 1018 30.06 847 25.01 6.3 43.3 61 -0.8 30.6 0
14:05 1018 30.06 847 25.01 6.1 43 58 -1.4 29.5 0
14:06 1018 30.06 847 25.01 6.2 43.1 59 -1.1 30 0
14:07 1018 30.06 847 25.01 6.1 43.1 60 -1 30.2 0
14:08 1018 30.06 847 25.01 6.1 43 62 -0.7 30.7 0
14:09 1018 30.06 847 25.01 5.8 42.5 64 -0.6 31 0
14:10 1018 30.06 847 25.01 5.5 41.9 64 -0.7 30.7 0
14:11 1018 30.06 847 25.01 5.2 41.3 64 -1 30.3 0
14:12 1018 30.06 847 25.01 5 41 65 -0.9 30.3 0
14:13 1018 30.06 847 25.01 4.9 40.9 65 -1 30.2 0
14:14 1018 30.06 847 25.01 4.9 40.8 66 -1 30.3 0
14:15 1018 30.06 847 25.01 5 41.1 66 -0.8 30.5 0
14:16 1018 30.06 847 25.01 5.2 41.3 64 -1.1 30 0
14:17 1018 30.06 847 25.01 5.2 41.4 63 -1.2 29.8 0
14:18 1018 30.06 847 25.01 5.3 41.6 63 -1.1 30.1 0
14:19 1018 30.06 847 25.01 5.4 41.7 63 -1.2 29.9 0
14:20 1018 30.06 847 25.01 5.4 41.7 62 -1.3 29.7 0
14:21 1018 30.06 847 25.01 5.5 41.8 62 -1.2 29.8 0
14:22 1018 30.06 847 25.01 5.5 41.9 62 -1.2 29.8 0
14:23 1018 30.06 847 25.01 5.6 42 64 -0.8 30.6 0
14:24 1018 30.06 847 25.01 5.6 42 64 -0.8 30.6 0
14:25 1018 30.06 847 25.01 5.6 42.1 63 -0.9 30.5 0
14:26 1018 30.06 847 25.01 5.6 42.1 63 -0.8 30.5 0
14:27 1018 30.06 847 25.01 5.7 42.2 62 -1 30.2 0
14:28 1018 30.06 847 25.01 5.8 42.4 62 -0.9 30.3 0
14:29 1018 30.06 847 25.01 5.9 42.6 62 -0.9 30.4 0
14:30 1018 30.06 847 25.01 5.9 42.7 60 -1.2 29.9 0
14:31 1018 30.06 847 25.01 5.9 42.6 59 -1.5 29.3 0
14:32 1018 30.06 847 25.01 5.8 42.5 59 -1.5 29.4 0
14:33 1018 30.06 847 25.01 5.8 42.5 61 -1.2 29.9 0
14:34 1018 30.06 847 25.01 5.8 42.4 61 -1.3 29.7 0
14:35 1018 30.06 847 25.01 5.7 42.2 60 -1.5 29.3 0
14:36 1018 30.06 847 25.01 5.7 42.2 61 -1.2 29.8 0
14:37 1018 30.06 847 25.01 5.6 42.1 63 -0.9 30.5 0
14:38 1018 30.06 847 25.01 5.5 41.8 63 -1 30.2 0
14:39 1018 30.06 847 25.01 5.4 41.6 64 -0.9 30.3 0
14:40 1018 30.06 847 25.01 5.2 41.4 65 -0.9 30.4 0
14:41 1018 30.06 847 25.01 5 41 65 -1 30.2 0
14:42 1018 30.06 847 25.01 4.8 40.7 67 -0.8 30.6 0
14:43 1018 30.06 847 25.01 4.6 40.2 68 -0.9 30.4 0
14:44 1018 30.06 847 25.01 4.3 39.8 68 -1.1 30 0
14:45 1018 30.06 847 25.01 4.2 39.5 68 -1.3 29.7 0
14:46 1018 30.06 847 25.01 4.2 39.6 67 -1.4 29.4 0
14:47 1018 30.06 847 25.01 4.4 40 66 -1.3 29.6 0
14:48 1018 30.06 847 25.01 4.5 40.1 66 -1.2 29.8 0
14:49 1018 30.06 847 25.01 4.6 40.2 67 -1.1 30 0
14:50 1018 30.06 847 25.01 4.6 40.3 66 -1.1 30 0
14:51 1018 30.06 847 25.01 4.7 40.5 65 -1.2 29.8 0
14:52 1018 30.06 847 25.01 4.8 40.6 63 -1.7 28.9 0
14:53 1018 30.06 847 25.01 4.9 40.9 63 -1.5 29.3 0
14:54 1018 30.06 847 25.01 5.1 41.1 65 -1.1 30.1 0
14:55 1018 30.06 847 25.01 4.9 40.8 63 -1.6 29.1 0
14:56 1018 30.06 847 25.01 5.1 41.1 57 -2.7 27.1 0
14:57 1018 30.06 847 25.01 5.3 41.6 59 -2.2 28.1 0
14:58 1018 30.06 847 25.01 5.5 41.9 53 -3.4 25.9 0
14:59 1018 30.06 847 25.01 5.7 42.3 55 -2.7 27.1 0
15:00 1018 30.06 847 25.01 6 42.8 47 -4.6 23.8 0
15:01 1018 30.06 847 25.01 6.6 43.9 45 -4.5 24 0
15:02 1018 30.06 847 25.01 6.9 44.4 44 -4.6 23.7 0
15:03 1018 30.06 847 25.01 7.2 44.9 39 -5.7 21.7 0
15:04 1018 30.06 847 25.01 7.7 45.9 38 -5.7 21.7 0
15:05 1018 30.06 847 25.01 8 46.5 39 -5.2 22.6 0
15:06 1018 30.06 847 25.01 8 46.5 40 -4.8 23.3 0
15:07 1018 30.06 847 25.01 8 46.3 43 -3.9 25.1 0
15:08 1018 30.06 847 25.01 7.7 45.8 44 -3.9 25 0
15:09 1018 30.06 847 25.01 7.4 45.2 41 -5 23 0
15:10 1018 30.06 847 25.01 7.6 45.7 41 -4.7 23.5 0
15:11 1018 30.06 847 25.01 7.7 45.8 39 -5.6 22 0
15:12 1018 30.06 847 25.01 7.8 46.1 39 -5.2 22.6 0
15:13 1018 30.06 847 25.01 7.9 46.2 42 -4.2 24.4 0
15:14 1018 30.06 847 25.01 7.6 45.8 43 -4.1 24.7 0
15:15 1018 30.06 847 25.01 7.5 45.5 44 -4.1 24.7 0
15:16 1018 30.06 847 25.01 7.5 45.4 42 -4.6 23.8 0
15:17 1018 30.06 847 25.01 7.4 45.4 43 -4.3 24.3 0
15:18 1018 30.06 847 25.01 7.4 45.3 44 -4.2 24.5 0
15:19 1018 30.06 847 25.01 7.3 45.1 44 -4.2 24.5 0
15:20 1018 30.06 847 25.01 7.1 44.8 45 -4 24.9 0
15:21 1018 30.06 847 25.01 7 44.6 46 -3.8 25.1 0
15:22 1018 30.06 847 25.01 6.8 44.3 47 -3.6 25.5 0
15:23 1018 30.06 847 25.01 6.6 44 44 -4.9 23.3 0
15:24 1018 30.06 847 25.01 6.7 44.1 45 -4.3 24.3 0
15:25 1018 30.06 847 25.01 6.9 44.4 46 -4 24.9 0
15:26 1018 30.06 847 25.01 6.8 44.3 47 -3.8 25.2 0
15:27 1018 30.06 847 25.01 6.7 44 48 -3.5 25.7 0
15:28 1018 30.06 847 25.01 6.6 43.8 48 -3.6 25.6 0
15:29 1018 30.06 847 25.01 6.4 43.5 48 -3.7 25.4 0
15:30 1018 30.06 847 25.01 6.4 43.5 47 -4 24.9 0
15:31 1018 30.06 847 25.01 6.5 43.6 47 -3.9 24.9 0
15:32 1018 30.06 847 25.01 6.5 43.7 44 -4.8 23.3 0
15:33 1018 30.06 847 25.01 6.7 44 47 -4 24.8 0
15:34 1018 30.06 847 25.01 6.8 44.2 46 -4.1 24.7 0
15:35 1018 30.06 847 25.01 6.8 44.3 47 -3.7 25.3 0
15:36 1018 30.06 847 25.01 6.7 44.1 48 -3.6 25.5 0
15:37 1018 30.06 847 25.01 6.6 43.9 48 -3.7 25.4 0
15:38 1018 30.06 847 25.01 6.5 43.7 49 -3.5 25.7 0
15:39 1018 30.06 847 25.01 6.4 43.5 48 -3.8 25.2 0
15:40 1018 30.06 847 25.01 6.4 43.5 48 -3.9 25 0
15:41 1018 30.06 847 25.01 6.4 43.6 48 -3.9 25 0
15:42 1018 30.06 847 25.01 6.4 43.6 47 -3.9 24.9 0
15:43 1018 30.06 847 25.01 6.6 43.8 44 -4.9 23.1 0
15:44 1018 30.06 847 25.01 6.9 44.4 44 -4.6 23.6 0
15:45 1018 30.06 847 25.01 7 44.7 45 -4.2 24.5 0
15:46 1018 30.06 847 25.01 7 44.7 45 -4.1 24.7 0
15:47 1018 30.06 847 25.01 7 44.6 44 -4.5 24 0
15:48 1018 30.06 847 25.01 7.1 44.8 44 -4.4 24.1 0
15:49 1018 30.06 847 25.01 7.1 44.7 45 -4.1 24.7 0
15:50 1018 30.06 847 25.01 6.9 44.5 45 -4.2 24.5 0
15:51 1018 30.06 847 25.01 6.8 44.2 45 -4.2 24.4 0
15:52 1018 30.06 847 25.01 6.8 44.3 45 -4.3 24.2 0
15:53 1018 30.06 847 25.01 6.8 44.2 46 -3.9 25 0
15:54 1018 30.06 847 25.01 6.7 44.1 45 -4.4 24.2 0
15:55 1018 30.06 847 25.01 6.8 44.2 45 -4.2 24.5 0
15:56 1018 30.06 847 25.01 6.8 44.3 44 -4.6 23.7 0
15:57 1018 30.06 847 25.01 6.9 44.5 43 -4.7 23.6 0
15:58 1018 30.06 847 25.01 7.1 44.7 44 -4.4 24.1 0
15:59 1018 30.06 847 25.01 7.1 44.9 42 -4.8 23.4 0
16:00 1018 30.06 847 25.01 7.3 45.2 41 -5 23 0
16:01 1018 30.06 847 25.01 7.4 45.3 44 -4.1 24.6 0
16:02 1018 30.06 847 25.01 7.2 44.9 45 -4 24.8 0
16:03 1018 30.06 847 25.01 7.1 44.7 44 -4.2 24.4 0
16:04 1018 30.06 847 25.01 7.1 44.8 44 -4.3 24.3 0
16:05 1018 30.06 847 25.01 7.1 44.8 42 -5 23 0
16:06 1018 30.06 847 25.01 7.3 45.1 42 -4.9 23.1 0
16:07 1018 30.06 847 25.01 7.3 45.2 43 -4.5 23.9 0
16:08 1018 30.06 847 25.01 7.4 45.2 42 -4.8 23.3 0
16:09 1018 30.06 847 25.01 7.3 45.2 43 -4.3 24.2 0
16:10 1018 30.06 847 25.01 7.3 45.2 43 -4.4 24.1 0
16:11 1018 30.06 847 25.01 7.2 45 44 -4.2 24.5 0
16:12 1018 30.06 847 25.01 7.1 44.8 45 -4 24.8 0
16:13 1018 30.06 847 25.01 7 44.6 45 -4.1 24.7 0
16:14 1018 30.06 847 25.01 6.9 44.4 46 -3.9 25 0
16:15 1018 30.06 847 25.01 6.8 44.3 45 -4.4 24.1 0
16:16 1018 30.06 847 25.01 6.8 44.2 45 -4.4 24.1 0
16:17 1017 30.03 847 25.01 6.8 44.3 47 -3.8 25.1 0
16:18 1017 30.03 847 25.01 6.8 44.2 45 -4.2 24.4 0
16:19 1017 30.03 847 25.01 6.7 44.1 42 -5.4 22.2 0
16:20 1017 30.03 847 25.01 7 44.7 41 -5.3 22.4 0
16:21 1017 30.03 847 25.01 7.3 45.1 41 -5.1 22.9 0
16:22 1017 30.03 847 25.01 7.5 45.4 41 -4.8 23.3 0
16:23 1017 30.03 847 25.01 7.4 45.4 41 -5 23 0
16:24 1017 30.03 847 25.01 7.5 45.4 42 -4.6 23.7 0
16:25 1017 30.03 847 25.01 7.3 45.2 42 -4.6 23.8 0
16:26 1017 30.03 847 25.01 7.2 45 42 -4.7 23.5 0
16:27 1017 30.03 847 25.01 7.1 44.8 44 -4.3 24.3 0
16:28 1017 30.03 847 25.01 7 44.5 45 -4.3 24.3 0
16:29 1017 30.03 847 25.01 6.7 44.1 47 -3.8 25.2 0
16:30 1017 30.03 847 25.01 6.5 43.7 48 -3.8 25.2 0
16:31 1017 30.03 846 24.98 6.3 43.4 48 -3.8 25.2 0
16:32 1017 30.03 846 24.98 6.2 43.1 49 -3.7 25.4 0
16:33 1017 30.03 846 24.98 5.9 42.7 50 -3.7 25.4 0
16:34 1017 30.03 846 24.98 5.8 42.4 51 -3.6 25.6 0
16:35 1017 30.03 846 24.98 5.6 42.2 52 -3.4 25.8 0
16:36 1017 30.03 846 24.98 5.6 42 51 -3.7 25.3 0
16:37 1017 30.03 846 24.98 5.6 42 51 -3.9 25.1 0
16:38 1017 30.03 846 24.98 5.6 42.1 50 -4 24.8 0
16:39 1017 30.03 846 24.98 5.7 42.2 49 -4.2 24.5 0
16:40 1017 30.03 846 24.98 5.8 42.4 49 -4 24.7 0
16:41 1017 30.03 846 24.98 5.9 42.6 49 -4 24.8 0
16:42 1017 30.03 846 24.98 5.9 42.7 48 -4.2 24.5 0
16:43 1017 30.03 846 24.98 5.9 42.7 49 -3.8 25.1 0
16:44 1017 30.03 846 24.98 5.9 42.6 51 -3.6 25.5 0
16:45 1017 30.03 846 24.98 5.8 42.5 51 -3.6 25.5 0
16:46 1017 30.03 846 24.98 5.8 42.5 50 -3.9 25 0
16:47 1017 30.03 846 24.98 5.8 42.5 49 -4 24.8 0
16:48 1017 30.03 846 24.98 5.9 42.5 50 -3.8 25.1 0
16:49 1017 30.03 846 24.98 5.9 42.6 49 -3.9 24.9 0
16:50 1017 30.03 846 24.98 6.1 42.9 47 -4.3 24.3 0
16:51 1017 30.03 846 24.98 6.2 43.2 48 -4 24.8 0
16:52 1017 30.03 846 24.98 6.3 43.3 48 -4 24.8 0
16:53 1017 30.03 846 24.98 6.3 43.3 48 -4 24.9 0
16:54 1017 30.03 846 24.98 6.2 43.1 49 -3.7 25.4 0
16:55 1017 30.03 846 24.98 6 42.8 51 -3.4 25.8 0
16:56 1017 30.03 846 24.98 5.8 42.5 50 -3.9 25.1 0
16:57 1017 30.03 846 24.98 5.8 42.5 50 -3.7 25.4 0
16:58 1017 30.03 846 24.98 5.8 42.4 50 -3.7 25.4 0
16:59 1017 30.03 846 24.98 5.8 42.4 51 -3.7 25.4 0
17:00 1017 30.03 846 24.98 5.8 42.5 50 -3.8 25.2 0
17:01 1017 30.03 846 24.98 5.9 42.6 50 -3.6 25.6 0
17:02 1017 30.03 846 24.98 5.8 42.5 51 -3.6 25.5 0
17:03 1017 30.03 846 24.98 5.8 42.4 50 -3.9 25 0
17:04 1017 30.03 847 25.01 6 42.7 48 -4.1 24.6 0
17:05 1017 30.03 846 24.98 6.1 43 49 -3.7 25.4 0
17:06 1017 30.03 846 24.98 6.1 42.9 50 -3.7 25.4 0
17:07 1017 30.03 846 24.98 6 42.7 50 -3.6 25.5 0
17:08 1017 30.03 847 25.01 5.8 42.5 51 -3.6 25.6 0
17:09 1017 30.03 847 25.01 5.7 42.3 51 -3.5 25.6 0
17:10 1017 30.03 847 25.01 5.7 42.2 52 -3.5 25.7 0
17:11 1017 30.03 847 25.01 5.7 42.2 51 -3.6 25.5 0
17:12 1017 30.03 847 25.01 5.8 42.4 49 -4.1 24.6 0
17:13 1017 30.03 847 25.01 5.9 42.7 49 -4 24.9 0
17:14 1017 30.03 847 25.01 6 42.9 50 -3.6 25.5 0
17:15 1017 30.03 847 25.01 6 42.8 50 -3.7 25.4 0
17:16 1017 30.03 847 25.01 5.9 42.7 51 -3.5 25.7 0
17:17 1017 30.03 847 25.01 5.8 42.5 51 -3.6 25.6 0
17:18 1017 30.03 847 25.01 5.8 42.4 50 -3.8 25.2 0
17:19 1017 30.03 847 25.01 5.8 42.5 51 -3.6 25.5 0
17:20 1017 30.03 847 25.01 5.9 42.7 48 -4.2 24.4 0
17:21 1017 30.03 847 25.01 6.2 43.2 47 -4.3 24.3 0
17:22 1017 30.03 847 25.01 6.5 43.7 46 -4.2 24.5 0
17:23 1017 30.03 847 25.01 6.7 44 45 -4.3 24.2 0
17:24 1017 30.03 847 25.01 6.8 44.2 46 -3.9 24.9 0
17:25 1017 30.03 846 24.98 6.6 43.9 48 -3.5 25.7 0
17:26 1017 30.03 846 24.98 6.4 43.5 48 -3.7 25.3 0
17:27 1017 30.03 846 24.98 6.2 43.2 49 -3.8 25.2 0
17:28 1017 30.03 846 24.98 6.2 43.1 49 -3.6 25.4 0
17:29 1017 30.03 846 24.98 6.1 42.9 48 -4.2 24.4 0
17:30 1017 30.03 846 24.98 6.1 43 49 -3.7 25.3 0
17:31 1017 30.03 846 24.98 6.1 43 49 -3.8 25.1 0
17:32 1017 30.03 846 24.98 6.1 43 49 -3.7 25.3 0
17:33 1017 30.03 846 24.98 6.1 43.1 49 -3.7 25.4 0
17:34 1017 30.03 846 24.98 6.1 43 49 -3.7 25.4 0
17:35 1017 30.03 846 24.98 6.1 42.9 49 -3.8 25.2 0
17:36 1017 30.03 846 24.98 6.1 42.9 50 -3.6 25.5 0
17:37 1017 30.03 846 24.98 5.9 42.7 51 -3.4 25.8 0
17:38 1017 30.03 846 24.98 5.8 42.4 53 -3.1 26.4 0
17:39 1017 30.03 846 24.98 5.5 42 54 -3 26.6 0
17:40 1017 30.03 846 24.98 5.3 41.5 55 -3 26.5 0
17:41 1017 30.03 846 24.98 5.1 41.2 56 -2.9 26.8 0
17:42 1017 30.03 846 24.98 5 41 57 -2.8 26.9 0
17:43 1017 30.03 846 24.98 4.8 40.7 56 -3.1 26.4 0
17:44 1017 30.03 846 24.98 4.9 40.8 55 -3.5 25.7 0
17:45 1017 30.03 846 24.98 5.3 41.5 51 -4 24.8 0
17:46 1017 30.03 846 24.98 5.8 42.5 52 -3.4 25.9 0
17:47 1017 30.03 846 24.98 5.9 42.6 52 -3.3 26.1 0
17:48 1017 30.03 846 24.98 6 42.8 51 -3.4 25.8 0
17:49 1017 30.03 846 24.98 6.1 43 51 -3.3 26 0
17:50 1017 30.03 846 24.98 6 42.8 52 -3.1 26.5 0
17:51 1017 30.03 846 24.98 5.9 42.6 52 -3.2 26.3 0
17:52 1017 30.03 846 24.98 5.9 42.6 52 -3.2 26.3 0
17:53 1017 30.03 846 24.98 5.9 42.6 52 -3.1 26.4 0
17:54 1017 30.03 846 24.98 5.9 42.6 49 -3.9 24.9 0
17:55 1017 30.03 846 24.98 6.3 43.3 48 -3.8 25.2 0
17:56 1017 30.03 846 24.98 6.6 44 48 -3.4 25.8 0
17:57 1017 30.03 846 24.98 6.7 44 50 -3.1 26.4 0
17:58 1017 30.03 846 24.98 6.6 43.9 49 -3.4 25.9 0
17:59 1017 30.03 846 24.98 6.7 44 50 -3.1 26.4 0
18:00 1017 30.03 846 24.98 6.5 43.7 50 -3.1 26.4 0
18:01 1017 30.03 846 24.98 6.4 43.6 50 -3.2 26.3 0
18:02 1017 30.03 846 24.98 6.3 43.4 51 -3 26.6 0
18:03 1017 30.03 846 24.98 6.3 43.3 50 -3.3 26.1 0
18:04 1017 30.03 846 24.98 6.2 43.2 52 -3 26.7 0
18:05 1017 30.03 846 24.98 6.1 43 51 -3.3 26.1 0
18:06 1017 30.03 846 24.98 6.2 43.2 50 -3.3 26 0
18:07 1017 30.03 846 24.98 6.3 43.4 51 -3.1 26.3 0
18:08 1017 30.03 846 24.98 6.2 43.2 51 -3.1 26.3 0
18:09 1017 30.03 846 24.98 6.2 43.2 50 -3.4 25.9 0
18:10 1017 30.03 846 24.98 6.3 43.4 51 -3.1 26.4 0
18:11 1017 30.03 846 24.98 6.4 43.5 50 -3.3 26.1 0
18:12 1016 30 846 24.98 6.4 43.6 51 -2.9 26.7 0
18:13 1016 30 846 24.98 6.3 43.3 52 -2.9 26.7 0
18:14 1016 30 846 24.98 6.2 43.1 51 -3.2 26.3 0
18:15 1016 30 846 24.98 6.3 43.3 50 -3.5 25.7 0
18:16 1016 30 846 24.98 6.4 43.6 50 -3.2 26.3 0
18:17 1016 30 846 24.98 6.4 43.5 51 -3 26.6 0
18:18 1016 30 846 24.98 6.3 43.3 51 -3 26.6 0
18:19 1016 30 846 24.98 6.2 43.1 52 -3 26.5 0
18:20 1016 30 846 24.98 6.1 43 51 -3.2 26.3 0
18:21 1016 30 846 24.98 6.1 43 51 -3.3 26.1 0
18:22 1016 30 846 24.98 6.2 43.1 50 -3.4 25.9 0
18:23 1016 30 845 24.95 6.2 43.2 49 -3.7 25.3 0
18:24 1016 30 846 24.98 6.6 43.9 47 -3.8 25.1 0
18:25 1016 30 845 24.95 7 44.6 48 -3.2 26.2 0
18:26 1016 30 845 24.95 7 44.5 47 -3.4 25.8 0
18:27 1016 30 845 24.95 6.9 44.5 49 -3.1 26.4 0
18:28 1016 30 845 24.95 6.9 44.4 48 -3.4 25.9 0
18:29 1016 30 845 24.95 6.9 44.5 48 -3.2 26.3 0
18:30 1016 30 845 24.95 6.9 44.5 48 -3.4 25.9 0
18:31 1016 30 845 24.95 7 44.6 49 -2.9 26.8 0
18:32 1016 30 845 24.95 6.9 44.5 47 -3.6 25.5 0
18:33 1016 30 845 24.95 7.1 44.8 47 -3.4 25.8 0
18:34 1016 30 845 24.95 7.2 44.9 47 -3.4 25.9 0
18:35 1016 30 845 24.95 7.3 45.1 47 -3.2 26.2 0
18:36 1016 30 845 24.95 7.3 45.1 48 -3.1 26.4 0
18:37 1016 30 845 24.95 7.3 45.1 48 -3 26.6 0
18:38 1016 30 845 24.95 7.1 44.8 49 -2.9 26.8 0
18:39 1016 30 845 24.95 7 44.6 49 -2.9 26.7 0
18:40 1016 30 845 24.95 7 44.6 49 -3 26.6 0
18:41 1016 30 845 24.95 7 44.6 49 -3 26.6 0
18:42 1016 30 845 24.95 7 44.5 50 -2.8 26.9 0
18:43 1016 30 845 24.95 6.9 44.4 50 -2.8 26.9 0
18:44 1016 30 845 24.95 6.9 44.4 50 -2.9 26.9 0
18:45 1016 30 845 24.95 6.9 44.4 50 -2.8 26.9 0
18:46 1016 30 845 24.95 6.8 44.3 49 -3 26.6 0
18:47 1016 30 845 24.95 6.9 44.4 49 -3.1 26.5 0
18:48 1016 30 845 24.95 7 44.5 50 -2.7 27.1 0
18:49 1016 30 845 24.95 7 44.5 49 -2.9 26.8 0
18:50 1016 30 845 24.95 6.9 44.5 50 -2.8 27 0
18:51 1016 30 845 24.95 6.8 44.3 51 -2.7 27.2 0
18:52 1016 30 845 24.95 6.7 44.1 51 -2.7 27.1 0
18:53 1016 30 845 24.95 6.7 44.1 50 -2.9 26.8 0
18:54 1016 30 845 24.95 6.8 44.3 50 -3 26.6 0
18:55 1016 30 845 24.95 6.9 44.5 49 -3.1 26.4 0
18:56 1016 30 845 24.95 7.1 44.8 49 -2.9 26.7 0
18:57 1016 30 845 24.95 7.1 44.8 50 -2.7 27.2 0
18:58 1016 30 845 24.95 7 44.5 51 -2.5 27.5 0
18:59 1016 30 845 24.95 6.9 44.4 51 -2.6 27.4 0
19:00 1016 30 845 24.95 6.8 44.3 51 -2.7 27.2 0
19:01 1016 30 845 24.95 6.7 44.1 51 -2.7 27.2 0
19:02 1016 30 845 24.95 6.7 44.1 51 -2.8 27 0
19:03 1016 30 845 24.95 6.8 44.2 50 -2.8 26.9 0
19:04 1016 30 845 24.95 6.8 44.2 50 -2.9 26.8 0
19:05 1016 30 845 24.95 6.7 44.1 52 -2.3 27.8 0
19:06 1016 30 845 24.95 6.5 43.8 53 -2.3 27.8 0
19:07 1016 30 845 24.95 6.3 43.4 54 -2.3 27.9 0
19:08 1016 30 845 24.95 6.1 43 54 -2.6 27.3 0
19:09 1016 30 845 24.95 6.1 42.9 56 -2.1 28.2 0
19:10 1016 30 845 24.95 5.9 42.6 56 -2.3 27.9 0
19:11 1016 30 845 24.95 5.8 42.5 56 -2.4 27.7 0
19:12 1016 30 845 24.95 5.8 42.4 56 -2.2 28 0
19:13 1016 30 845 24.95 5.8 42.4 56 -2.3 27.9 0
19:14 1016 30 845 24.95 5.8 42.4 56 -2.3 27.8 0
19:15 1016 30 845 24.95 5.7 42.3 57 -2.2 28 0
19:16 1016 30 845 24.95 5.7 42.2 56 -2.3 27.8 0
19:17 1016 30 845 24.95 5.6 42.1 57 -2.1 28.2 0
19:18 1016 30 845 24.95 5.6 42.1 57 -2.2 28 0
19:19 1016 30 845 24.95 5.6 42 57 -2.3 27.9 0
19:20 1016 30 845 24.95 5.5 41.9 57 -2.2 28 0
19:21 1016 30 845 24.95 5.5 42 56 -2.5 27.6 0
19:22 1016 30 845 24.95 5.7 42.2 55 -2.6 27.4 0
19:23 1016 30 845 24.95 5.9 42.5 55 -2.6 27.4 0
19:24 1015 29.97 845 24.95 5.9 42.7 55 -2.4 27.8 0
19:25 1015 29.97 845 24.95 6 42.8 55 -2.4 27.8 0
19:26 1015 29.97 845 24.95 5.9 42.6 56 -2.3 27.9 0
19:27 1015 29.97 845 24.95 5.8 42.5 56 -2.2 28.1 0
19:28 1015 29.97 845 24.95 5.7 42.2 57 -2.2 28 0
19:29 1015 29.97 845 24.95 5.7 42.2 55 -2.6 27.3 0
19:30 1015 29.97 845 24.95 5.8 42.5 56 -2.4 27.7 0
19:31 1015 29.97 845 24.95 5.8 42.4 56 -2.3 27.9 0
19:32 1015 29.97 845 24.95 5.8 42.4 56 -2.4 27.7 0
19:33 1015 29.97 844 24.92 5.7 42.3 56 -2.4 27.6 0
19:34 1015 29.97 845 24.95 5.8 42.4 55 -2.5 27.5 0
19:35 1015 29.97 844 24.92 5.8 42.5 55 -2.4 27.6 0
19:36 1015 29.97 845 24.95 5.9 42.6 53 -2.8 26.9 0
19:37 1015 29.97 844 24.92 6.1 42.9 54 -2.6 27.2 0
19:38 1015 29.97 844 24.92 6.1 43 54 -2.6 27.3 0
19:39 1015 29.97 844 24.92 6.2 43.1 52 -2.8 26.9 0
19:40 1015 29.97 844 24.92 6.3 43.4 52 -2.9 26.8 0
19:41 1015 29.97 844 24.92 6.5 43.6 52 -2.6 27.3 0
19:42 1015 29.97 844 24.92 6.4 43.6 52 -2.7 27.2 0
19:43 1015 29.97 844 24.92 6.3 43.3 52 -2.7 27.1 0
19:44 1015 29.97 844 24.92 6.2 43.2 53 -2.7 27.2 0
19:45 1015 29.97 844 24.92 6.2 43.2 53 -2.5 27.4 0
19:46 1015 29.97 844 24.92 6.1 43 53 -2.7 27.2 0
19:47 1015 29.97 844 24.92 6.1 43 54 -2.6 27.3 0
19:48 1015 29.97 844 24.92 6 42.9 54 -2.7 27.2 0
19:49 1015 29.97 844 24.92 6 42.8 54 -2.6 27.3 0
19:50 1015 29.97 844 24.92 6 42.7 54 -2.6 27.3 0
19:51 1015 29.97 844 24.92 5.8 42.5 54 -2.6 27.2 0
19:52 1015 29.97 844 24.92 5.8 42.5 54 -2.7 27.2 0
19:53 1015 29.97 844 24.92 5.8 42.5 55 -2.5 27.6 0
19:54 1015 29.97 844 24.92 5.7 42.3 56 -2.3 27.9 0
19:55 1015 29.97 844 24.92 5.5 41.9 57 -2.2 28 0
19:56 1015 29.97 844 24.92 5.3 41.5 58 -2.2 28.1 0
19:57 1015 29.97 844 24.92 5.2 41.3 58 -2.4 27.7 0
19:58 1015 29.97 844 24.92 5.2 41.4 57 -2.6 27.3 0
19:59 1015 29.97 844 24.92 5.4 41.7 54 -3.1 26.5 0
20:00 1015 29.97 844 24.92 5.7 42.2 54 -2.9 26.7 0
20:01 1015 29.97 844 24.92 5.9 42.6 54 -2.8 27 0
20:02 1015 29.97 844 24.92 5.9 42.7 54 -2.6 27.3 0
20:03 1015 29.97 844 24.92 5.8 42.5 56 -2.3 27.9 0
20:04 1015 29.97 844 24.92 5.6 42 56 -2.4 27.6 0
20:05 1015 29.97 844 24.92 5.5 41.8 55 -2.8 26.9 0
20:06 1015 29.97 844 24.92 5.6 42.1 54 -3 26.6 0
20:07 1015 29.97 844 24.92 5.8 42.4 53 -3 26.6 0
20:08 1015 29.97 844 24.92 6 42.8 51 -3.4 25.9 0
20:09 1015 29.97 844 24.92 6.3 43.4 51 -3.1 26.4 0
20:10 1015 29.97 844 24.92 6.5 43.7 51 -3 26.6 0
20:11 1015 29.97 844 24.92 6.5 43.7 52 -2.7 27.2 0
20:12 1015 29.97 844 24.92 6.3 43.4 53 -2.6 27.4 0
20:13 1015 29.97 844 24.92 6.2 43.1 54 -2.5 27.5 0
20:14 1015 29.97 844 24.92 6 42.8 53 -2.8 26.9 0
20:15 1015 29.97 844 24.92 6 42.8 53 -3 26.7 0
20:16 1015 29.97 844 24.92 6 42.8 53 -2.9 26.7 0
20:17 1015 29.97 844 24.92 6 42.9 53 -2.9 26.8 0
20:18 1015 29.97 844 24.92 6 42.8 53 -2.8 27 0
20:19 1015 29.97 844 24.92 6 42.8 53 -2.8 26.9 0
20:20 1015 29.97 844 24.92 6.1 43 52 -3 26.6 0
20:21 1015 29.97 844 24.92 6.3 43.3 52 -2.9 26.8 0
20:22 1015 29.97 844 24.92 6.2 43.2 53 -2.7 27.1 0
20:23 1015 29.97 844 24.92 6.2 43.1 53 -2.7 27.2 0
20:24 1015 29.97 844 24.92 6 42.9 52 -3.1 26.5 0
20:25 1015 29.97 844 24.92 6.2 43.1 53 -2.8 27 0
20:26 1015 29.97 844 24.92 6.2 43.1 52 -3.1 26.5 0
20:27 1015 29.97 844 24.92 6.3 43.3 50 -3.2 26.2 0
20:28 1015 29.97 844 24.92 6.4 43.5 51 -3 26.6 0
20:29 1015 29.97 844 24.92 6.3 43.4 52 -2.7 27.2 0
20:30 1015 29.97 844 24.92 6.3 43.4 52 -2.8 26.9 0
20:31 1015 29.97 844 24.92 6.3 43.3 53 -2.6 27.3 0
20:32 1015 29.97 844 24.92 6.1 42.9 53 -2.7 27.1 0
20:33 1015 29.97 844 24.92 6 42.8 54 -2.6 27.3 0
20:34 1015 29.97 844 24.92 5.9 42.5 55 -2.6 27.4 0
20:35 1015 29.97 844 24.92 5.8 42.4 55 -2.6 27.3 0
20:36 1015 29.97 844 24.92 5.8 42.4 56 -2.4 27.7 0
20:37 1015 29.97 844 24.92 5.7 42.2 56 -2.5 27.5 0
20:38 1015 29.97 844 24.92 5.7 42.3 53 -3.1 26.4 0
20:39 1015 29.97 844 24.92 6 42.9 53 -2.9 26.8 0
20:40 1015 29.97 844 24.92 6.2 43.1 51 -3.2 26.3 0
20:41 1015 29.97 844 24.92 6.3 43.3 50 -3.3 26.1 0
20:42 1015 29.97 844 24.92 6.4 43.6 49 -3.4 25.9 0
20:43 1015 29.97 844 24.92 6.6 43.9 50 -3 26.6 0
20:44 1015 29.97 844 24.92 6.7 44 47 -3.7 25.3 0
20:45 1015 29.97 844 24.92 6.8 44.3 48 -3.3 26 0
20:46 1015 29.97 844 24.92 6.9 44.4 48 -3.4 25.9 0
20:47 1015 29.97 844 24.92 6.8 44.3 49 -3 26.5 0
20:48 1015 29.97 844 24.92 6.6 43.9 52 -2.6 27.3 0
20:49 1015 29.97 844 24.92 6.3 43.3 54 -2.4 27.7 0
20:50 1015 29.97 844 24.92 6 42.8 54 -2.7 27.2 0
20:51 1015 29.97 844 24.92 5.8 42.5 54 -2.7 27.1 0
20:52 1015 29.97 844 24.92 5.7 42.3 54 -2.8 26.9 0
20:53 1015 29.97 844 24.92 5.7 42.3 52 -3.3 26.1 0
20:54 1015 29.97 844 24.92 6 42.8 49 -4 24.8 0
20:55 1015 29.97 844 24.92 6.5 43.8 48 -3.7 25.4 0
20:56 1014 29.94 844 24.92 6.7 44 47 -3.9 24.9 0
20:57 1014 29.94 844 24.92 6.9 44.4 48 -3.4 25.9 0
20:58 1014 29.94 844 24.92 6.9 44.5 48 -3.4 25.9 0
20:59 1014 29.94 844 24.92 6.9 44.4 49 -3.2 26.3 0
21:00 1014 29.94 844 24.92 6.7 44.1 50 -2.9 26.7 0
21:01 1014 29.94 844 24.92 6.6 43.8 50 -3 26.6 0
21:02 1014 29.94 843 24.89 6.5 43.7 50 -3.2 26.2 0
21:03 1014 29.94 843 24.89 6.4 43.6 51 -3.1 26.5 0
21:04 1014 29.94 843 24.89 6.4 43.5 50 -3.2 26.2 0
21:05 1014 29.94 843 24.89 6.5 43.7 48 -3.8 25.2 0
21:06 1014 29.94 843 24.89 6.8 44.2 48 -3.5 25.7 0
21:07 1014 29.94 843 24.89 6.9 44.4 49 -3.2 26.2 0
21:08 1014 29.94 843 24.89 6.8 44.2 48 -3.4 25.8 0
21:09 1014 29.94 843 24.89 7 44.5 46 -3.8 25.2 0
21:10 1014 29.94 843 24.89 7.2 44.9 46 -3.6 25.5 0
21:11 1014 29.94 843 24.89 7.2 45 47 -3.4 25.8 0
21:12 1014 29.94 843 24.89 7.2 44.9 47 -3.4 25.9 0
21:13 1014 29.94 843 24.89 7 44.6 48 -3.2 26.2 0
21:14 1014 29.94 843 24.89 6.9 44.4 49 -3.2 26.2 0
21:15 1014 29.94 843 24.89 6.7 44 50 -3.1 26.4 0
21:16 1014 29.94 843 24.89 6.6 43.9 49 -3.4 25.9 0
21:17 1014 29.94 843 24.89 6.7 44.1 48 -3.4 25.8 0
21:18 1014 29.94 843 24.89 6.8 44.2 47 -3.6 25.4 0
21:19 1014 29.94 843 24.89 6.8 44.3 48 -3.4 25.8 0
21:20 1014 29.94 843 24.89 6.8 44.3 47 -3.7 25.4 0
21:21 1014 29.94 843 24.89 6.9 44.4 46 -3.8 25.2 0
21:22 1014 29.94 843 24.89 7 44.6 47 -3.5 25.7 0
21:23 1014 29.94 843 24.89 7 44.6 46 -3.7 25.3 0
21:24 1014 29.94 843 24.89 7 44.6 46 -3.7 25.4 0
21:25 1014 29.94 843 24.89 6.9 44.5 48 -3.4 25.9 0
21:26 1014 29.94 843 24.89 6.8 44.3 47 -3.7 25.3 0
21:27 1014 29.94 843 24.89 6.8 44.3 47 -3.8 25.2 0
21:28 1014 29.94 843 24.89 6.9 44.4 46 -4 24.9 0
21:29 1014 29.94 843 24.89 6.9 44.4 47 -3.6 25.5 0
21:30 1014 29.94 843 24.89 6.9 44.4 46 -4 24.8 0
21:31 1014 29.94 843 24.89 7.1 44.7 46 -3.8 25.2 0
21:32 1014 29.94 843 24.89 7.1 44.7 45 -4 24.8 0
21:33 1014 29.94 843 24.89 7.2 44.9 44 -4.1 24.6 0
21:34 1014 29.94 843 24.89 7.2 45 46 -3.5 25.6 0
21:35 1013 29.91 843 24.89 7 44.6 47 -3.6 25.6 0
21:36 1014 29.94 843 24.89 6.8 44.3 47 -3.6 25.6 0
21:37 1014 29.94 843 24.89 6.8 44.2 48 -3.6 25.6 0
21:38 1014 29.94 843 24.89 6.7 44.1 47 -3.8 25.1 0
21:39 1014 29.94 843 24.89 6.8 44.2 47 -3.8 25.2 0
21:40 1014 29.94 843 24.89 6.8 44.3 46 -3.9 25 0
21:41 1014 29.94 843 24.89 6.9 44.4 46 -3.8 25.2 0
21:42 1014 29.94 843 24.89 6.8 44.3 47 -3.7 25.4 0
21:43 1014 29.94 843 24.89 6.8 44.2 47 -3.8 25.2 0
21:44 1014 29.94 843 24.89 6.8 44.2 48 -3.5 25.6 0
21:45 1014 29.94 843 24.89 6.7 44.1 47 -3.7 25.3 0
21:46 1013 29.91 843 24.89 7 44.6 46 -4 24.8 0
21:47 1013 29.91 843 24.89 7.1 44.7 45 -4 24.7 0
21:48 1013 29.91 843 24.89 7.1 44.7 45 -4.1 24.7 0
21:49 1013 29.91 843 24.89 7.2 45 46 -3.6 25.5 0
21:50 1013 29.91 843 24.89 7.2 45 44 -4.1 24.6 0
21:51 1013 29.91 843 24.89 7.5 45.5 42 -4.5 23.9 0
21:52 1014 29.94 843 24.89 7.8 46 42 -4.4 24.1 0
21:53 1013 29.91 843 24.89 7.8 46 42 -4.2 24.4 0
21:54 1013 29.91 843 24.89 7.8 46 44 -3.7 25.3 0
21:55 1013 29.91 843 24.89 7.7 45.9 43 -4.2 24.4 0
21:56 1013 29.91 843 24.89 7.7 45.9 43 -4.1 24.6 0
21:57 1013 29.91 843 24.89 7.7 45.8 44 -3.9 24.9 0
21:58 1013 29.91 843 24.89 7.5 45.5 45 -3.7 25.3 0
21:59 1013 29.91 843 24.89 7.5 45.4 46 -3.5 25.7 0
22:00 1013 29.91 843 24.89 7.3 45.2 45 -3.7 25.3 0
22:01 1013 29.91 843 24.89 7.2 45 44 -4.1 24.6 0
22:02 1013 29.91 843 24.89 7.3 45.2 44 -4 24.8 0
22:03 1013 29.91 843 24.89 7.6 45.6 43 -4.1 24.6 0
22:04 1013 29.91 843 24.89 7.7 45.9 44 -3.7 25.4 0
22:05 1013 29.91 843 24.89 7.4 45.4 46 -3.3 26 0
22:06 1013 29.91 843 24.89 7.3 45.1 47 -3.4 25.9 0
22:07 1013 29.91 843 24.89 7.1 44.8 47 -3.4 25.8 0
22:08 1013 29.91 843 24.89 7 44.5 48 -3.3 26 0
22:09 1013 29.91 843 24.89 6.9 44.3 47 -3.7 25.3 0
22:10 1013 29.91 842 24.86 6.8 44.3 47 -3.6 25.6 0
22:11 1013 29.91 842 24.86 6.8 44.2 48 -3.4 25.8 0
22:12 1013 29.91 843 24.89 6.8 44.2 47 -3.7 25.4 0
22:13 1013 29.91 843 24.89 6.9 44.3 47 -3.7 25.4 0
22:14 1013 29.91 843 24.89 6.8 44.3 49 -3.2 26.3 0
22:15 1013 29.91 843 24.89 6.7 44.1 48 -3.4 25.9 0
22:16 1013 29.91 843 24.89 6.6 43.9 50 -3.1 26.4 0
22:17 1013 29.91 843 24.89 6.5 43.6 49 -3.4 26 0
22:18 1013 29.91 843 24.89 6.5 43.7 47 -3.9 25 0
22:19 1013 29.91 843 24.89 6.6 43.9 49 -3.3 26.1 0
22:20 1013 29.91 843 24.89 6.6 43.8 48 -3.6 25.5 0
22:21 1013 29.91 843 24.89 6.9 44.4 45 -4.3 24.2 0
22:22 1013 29.91 843 24.89 7.1 44.8 48 -3.3 26.1 0
22:23 1013 29.91 843 24.89 6.8 44.3 49 -3.2 26.2 0
22:24 1013 29.91 843 24.89 6.6 43.8 50 -3 26.5 0
22:25 1013 29.91 842 24.86 6.3 43.3 51 -3.2 26.3 0
22:26 1013 29.91 843 24.89 6.2 43.2 50 -3.5 25.7 0
22:27 1013 29.91 843 24.89 6.2 43.2 51 -3.2 26.2 0
22:28 1013 29.91 843 24.89 6.1 43 52 -3.1 26.5 0
22:29 1013 29.91 843 24.89 6.1 43 51 -3.3 26.1 0
22:30 1013 29.91 843 24.89 6.1 43 51 -3.2 26.3 0
22:31 1013 29.91 843 24.89 6 42.8 53 -2.8 26.9 0
22:32 1013 29.91 843 24.89 5.8 42.4 54 -2.8 27 0
22:33 1013 29.91 843 24.89 5.6 42.1 55 -2.7 27.1 0
22:34 1013 29.91 843 24.89 5.5 41.8 54 -3.2 26.3 0
22:35 1013 29.91 843 24.89 5.5 41.8 54 -3 26.5 0
22:36 1013 29.91 843 24.89 5.5 42 53 -3.3 26.1 0
22:37 1013 29.91 843 24.89 5.7 42.3 49 -4.1 24.6 0
22:38 1013 29.91 843 24.89 6.1 43.1 48 -3.9 24.9 0
22:39 1013 29.91 843 24.89 6.3 43.4 50 -3.2 26.3 0
22:40 1013 29.91 843 24.89 6.3 43.3 50 -3.4 25.8 0
22:41 1013 29.91 843 24.89 6.4 43.5 49 -3.4 25.8 0
22:42 1013 29.91 843 24.89 6.6 43.8 45 -4.5 23.9 0
22:43 1013 29.91 843 24.89 7 44.5 46 -3.8 25.2 0
22:44 1013 29.91 842 24.86 7 44.5 47 -3.4 25.8 0
22:45 1013 29.91 842 24.86 6.9 44.3 47 -3.7 25.3 0
22:46 1013 29.91 842 24.86 6.9 44.5 46 -3.9 25 0
22:47 1013 29.91 842 24.86 7.2 45 42 -4.8 23.3 0
22:48 1013 29.91 843 24.89 7.6 45.6 42 -4.6 23.6 0
22:49 1013 29.91 842 24.86 7.5 45.6 44 -3.9 24.9 0
22:50 1013 29.91 842 24.86 7.5 45.5 44 -3.9 24.9 0
22:51 1013 29.91 842 24.86 7.4 45.3 43 -4.3 24.3 0
22:52 1013 29.91 842 24.86 7.4 45.3 43 -4.3 24.3 0
22:53 1013 29.91 842 24.86 7.4 45.3 45 -3.7 25.3 0
22:54 1013 29.91 842 24.86 7.2 45 45 -4 24.8 0
22:55 1013 29.91 842 24.86 7.1 44.8 46 -3.6 25.5 0
22:56 1013 29.91 842 24.86 6.9 44.4 47 -3.7 25.3 0
22:57 1013 29.91 842 24.86 6.9 44.3 44 -4.7 23.6 0
22:58 1013 29.91 842 24.86 7.1 44.8 44 -4.4 24.1 0
22:59 1013 29.91 842 24.86 7.2 45 45 -4 24.7 0
23:00 1013 29.91 842 24.86 7.2 45 45 -4 24.9 0
23:01 1013 29.91 842 24.86 7.1 44.7 46 -3.8 25.1 0
23:02 1013 29.91 842 24.86 6.9 44.3 47 -3.7 25.4 0
23:03 1013 29.91 842 24.86 6.7 44.1 45 -4.3 24.2 0
23:04 1013 29.91 842 24.86 6.9 44.5 45 -4.3 24.3 0
23:05 1013 29.91 842 24.86 7 44.6 45 -4.1 24.5 0
23:06 1013 29.91 842 24.86 7 44.5 45 -4.2 24.4 0
23:07 1013 29.91 842 24.86 6.9 44.5 45 -4.2 24.5 0
23:08 1013 29.91 842 24.86 7 44.5 44 -4.4 24 0
23:09 1013 29.91 842 24.86 7.1 44.7 40 -5.6 22 0
23:10 1013 29.91 842 24.86 7.5 45.4 42 -4.6 23.7 0
23:11 1013 29.91 842 24.86 7.5 45.4 43 -4.2 24.4 0
23:12 1013 29.91 842 24.86 7.4 45.4 43 -4.2 24.4 0
23:13 1013 29.91 842 24.86 7.3 45.2 42 -4.7 23.5 0
23:14 1012 29.88 842 24.86 7.3 45.2 42 -4.7 23.6 0
23:15 1012 29.88 842 24.86 7.3 45.1 44 -4.3 24.2 0
23:16 1012 29.88 842 24.86 7.3 45.1 43 -4.4 24 0
23:17 1012 29.88 842 24.86 7.3 45.1 43 -4.5 24 0
23:18 1012 29.88 842 24.86 7.3 45.1 41 -5.1 22.8 0
23:19 1012 29.88 842 24.86 7.3 45.2 42 -4.6 23.7 0
23:20 1012 29.88 842 24.86 7.3 45.1 42 -4.7 23.5 0
23:21 1012 29.88 842 24.86 7.3 45.1 42 -4.8 23.4 0
23:22 1012 29.88 842 24.86 7.3 45.2 40 -5.4 22.3 0
23:23 1012 29.88 842 24.86 7.5 45.6 40 -5.1 22.8 0
23:24 1012 29.88 842 24.86 7.6 45.7 42 -4.6 23.8 0
23:25 1012 29.88 842 24.86 7.5 45.6 42 -4.4 24.1 0
23:26 1012 29.88 841 24.83 7.3 45.1 42 -4.6 23.6 0
23:27 1012 29.88 841 24.83 7.1 44.9 42 -4.8 23.3 0
23:28 1012 29.88 841 24.83 7.2 44.9 44 -4.1 24.5 0
23:29 1012 29.88 841 24.83 7.1 44.8 43 -4.7 23.5 0
23:30 1012 29.88 841 24.83 7.2 45 41 -5 23 0
23:31 1012 29.88 841 24.83 7.4 45.3 43 -4.4 24.1 0
23:32 1012 29.88 841 24.83 7.4 45.4 41 -4.9 23.2 0
23:33 1012 29.88 841 24.83 7.5 45.6 41 -5 23 0
23:34 1012 29.88 841 24.83 7.5 45.4 42 -4.6 23.7 0
23:35 1012 29.88 841 24.83 7.3 45.1 43 -4.5 23.8 0
23:36 1012 29.88 841 24.83 7.2 45 43 -4.5 23.9 0
23:37 1012 29.88 841 24.83 7.2 44.9 43 -4.7 23.5 0
23:38 1012 29.88 841 24.83 7.1 44.9 43 -4.6 23.8 0
23:39 1012 29.88 841 24.83 7.1 44.8 42 -4.9 23.2 0
23:40 1012 29.88 841 24.83 7.2 45 42 -4.8 23.4 0
23:41 1012 29.88 841 24.83 7.3 45.1 38 -6 21.3 0
23:42 1012 29.88 841 24.83 7.6 45.7 37 -6.1 21 0
23:43 1012 29.88 841 24.83 7.8 46 39 -5.4 22.3 0
23:44 1012 29.88 841 24.83 7.8 46 41 -4.8 23.4 0
23:45 1012 29.88 841 24.83 7.7 45.8 41 -4.9 23.2 0
23:46 1012 29.88 841 24.83 7.5 45.5 40 -5.2 22.6 0
23:47 1012 29.88 841 24.83 7.4 45.2 41 -5 23 0
23:48 1012 29.88 841 24.83 7.2 45 42 -5 23.1 0
23:49 1012 29.88 841 24.83 7.4 45.4 40 -5.3 22.5 0
23:50 1012 29.88 841 24.83 7.3 45.1 43 -4.4 24.1 0
23:51 1012 29.88 841 24.83 7.2 44.9 43 -4.7 23.5 0
23:52 1012 29.88 841 24.83 7.1 44.8 41 -5.1 22.8 0
23:53 1012 29.88 841 24.83 7.2 45 42 -4.9 23.3 0
23:54 1012 29.88 841 24.83 7.1 44.9 42 -4.7 23.5 0
23:55 1012 29.88 841 24.83 7.1 44.7 41 -5.2 22.7 0
23:56 1012 29.88 841 24.83 7 44.7 44 -4.4 24.1 0
23:57 1012 29.88 841 24.83 6.8 44.2 44 -4.5 24 0
23:58 1012 29.88 841 24.83 6.7 44.1 44 -4.6 23.8 0
23:59 1012 29.88 841 24.83 6.7 44 44 -4.6 23.7 0
24:00 1012 29.88 841 24.83 6.6 43.9 43 -5.1 22.8 0